Wetterdaten: Samstag, 13.04.2019
Datum Zeit Temp. Aussen Temp. o. S. +5cm Feuchte Auss Luftdruck Regen Sonnenschein Regendauer Solar Windben Empfang
13.04.2019 00:00 3,8 C 2,8 C 2,2 C 73 % 1023,2 hPa 0,0 l/m 0 min 0 min 0 W/m 12,9 km/h (3 Bft) 97,87 %
13.04.2019 00:02 3,8 C 2,8 C 2,2 C 73 % 1023,2 hPa 0,0 l/m 0 min 0 min 0 W/m 6,4 km/h (2 Bft) 22,22 %
13.04.2019 00:04 3,8 C 2,8 C 2,2 C 74 % 1023,2 hPa 0,0 l/m 0 min 0 min 0 W/m 9,7 km/h (2 Bft) 38,10 %
13.04.2019 00:08 3,7 C 2,8 C 2,2 C 74 % 1023,2 hPa 0,0 l/m 0 min 0 min 0 W/m 9,7 km/h (2 Bft) 99,00 %
13.04.2019 00:10 3,7 C 2,8 C 2,2 C 74 % 1023,2 hPa 0,0 l/m 0 min 0 min 0 W/m 9,7 km/h (2 Bft) 100,00 %
13.04.2019 00:12 3,7 C 2,8 C 2,2 C 74 % 1023,2 hPa 0,0 l/m 0 min 0 min 0 W/m 9,7 km/h (2 Bft) 100,00 %
13.04.2019 00:14 3,6 C 2,8 C 2,2 C 74 % 1023,2 hPa 0,0 l/m 0 min 0 min 0 W/m 9,7 km/h (2 Bft) 100,00 %
13.04.2019 00:16 3,6 C 2,8 C 2,2 C 74 % 1023,2 hPa 0,0 l/m 0 min 0 min 0 W/m 6,4 km/h (2 Bft) 100,00 %
13.04.2019 00:18 3,6 C 2,2 C 2,2 C 75 % 1023,2 hPa 0,0 l/m 0 min 0 min 0 W/m 9,7 km/h (2 Bft) 100,00 %
13.04.2019 00:20 3,6 C 2,2 C 1,7 C 75 % 1023,2 hPa 0,0 l/m 0 min 0 min 0 W/m 6,4 km/h (2 Bft) 97,87 %
13.04.2019 00:22 3,5 C 2,2 C 1,7 C 75 % 1023,2 hPa 0,0 l/m 0 min 0 min 0 W/m 6,4 km/h (2 Bft) 100,00 %
13.04.2019 00:24 3,4 C 2,2 C 1,7 C 75 % 1023,1 hPa 0,0 l/m 0 min 0 min 0 W/m 6,4 km/h (2 Bft) 100,00 %
13.04.2019 00:26 3,4 C 2,2 C 1,7 C 75 % 1023,1 hPa 0,0 l/m 0 min 0 min 0 W/m 6,4 km/h (2 Bft) 100,00 %
13.04.2019 00:28 3,4 C 2,2 C 1,7 C 75 % 1023,1 hPa 0,0 l/m 0 min 0 min 0 W/m 6,4 km/h (2 Bft) 100,00 %
13.04.2019 00:30 3,4 C 2,2 C 1,7 C 75 % 1023,2 hPa 0,0 l/m 0 min 0 min 0 W/m 9,7 km/h (2 Bft) 97,83 %
13.04.2019 00:32 3,3 C 2,2 C 1,7 C 76 % 1023,1 hPa 0,0 l/m 0 min 0 min 0 W/m 9,7 km/h (2 Bft) 97,87 %
13.04.2019 00:34 3,3 C 2,2 C 1,7 C 76 % 1023,1 hPa 0,0 l/m 0 min 0 min 0 W/m 9,7 km/h (2 Bft) 100,00 %
13.04.2019 00:36 3,3 C 2,2 C 1,7 C 76 % 1023,1 hPa 0,0 l/m 0 min 0 min 0 W/m 3,2 km/h (1 Bft) 95,74 %
13.04.2019 00:38 3,3 C 2,2 C 1,7 C 76 % 1023,1 hPa 0,0 l/m 0 min 0 min 0 W/m 6,4 km/h (2 Bft) 100,00 %
13.04.2019 00:40 3,2 C 2,2 C 1,7 C 76 % 1023,1 hPa 0,0 l/m 0 min 0 min 0 W/m 3,2 km/h (1 Bft) 95,74 %
13.04.2019 00:42 3,2 C 2,2 C 1,7 C 76 % 1023,2 hPa 0,0 l/m 0 min 0 min 0 W/m 6,4 km/h (2 Bft) 100,00 %
13.04.2019 00:44 3,2 C 2,2 C 1,7 C 76 % 1023,1 hPa 0,0 l/m 0 min 0 min 0 W/m 6,4 km/h (2 Bft) 97,87 %
13.04.2019 00:46 3,2 C 2,2 C 1,7 C 77 % 1023,1 hPa 0,0 l/m 0 min 0 min 0 W/m 6,4 km/h (2 Bft) 97,87 %
13.04.2019 00:48 3,1 C 1,7 C 1,7 C 77 % 1023,1 hPa 0,0 l/m 0 min 0 min 0 W/m 6,4 km/h (2 Bft) 97,87 %
13.04.2019 00:50 3,1 C 1,7 C 1,7 C 77 % 1023,0 hPa 0,0 l/m 0 min 0 min 0 W/m 9,7 km/h (2 Bft) 95,74 %
13.04.2019 00:52 3,1 C 1,7 C 1,7 C 77 % 1023,1 hPa 0,0 l/m 0 min 0 min 0 W/m 6,4 km/h (2 Bft) 91,49 %
13.04.2019 00:54 3,0 C 1,7 C 1,7 C 77 % 1023,1 hPa 0,0 l/m 0 min 0 min 0 W/m 6,4 km/h (2 Bft) 93,48 %
13.04.2019 00:56 3,0 C 1,7 C 1,7 C 78 % 1023,1 hPa 0,0 l/m 0 min 0 min 0 W/m 6,4 km/h (2 Bft) 95,74 %
13.04.2019 00:58 2,9 C 1,7 C 1,7 C 78 % 1023,1 hPa 0,0 l/m 0 min 0 min 0 W/m 12,9 km/h (3 Bft) 95,74 %
13.04.2019 01:00 2,9 C 1,7 C 1,7 C 78 % 1023,2 hPa 0,0 l/m 0 min 0 min 0 W/m 9,7 km/h (2 Bft) 95,74 %
13.04.2019 01:02 2,9 C 1,7 C 1,7 C 78 % 1023,1 hPa 0,0 l/m 0 min 0 min 0 W/m 9,7 km/h (2 Bft) 95,74 %
13.04.2019 01:04 2,9 C 1,7 C 1,7 C 78 % 1023,1 hPa 0,0 l/m 0 min 0 min 0 W/m 6,4 km/h (2 Bft) 95,74 %
13.04.2019 01:06 2,8 C 1,7 C 1,7 C 79 % 1023,0 hPa 0,0 l/m 0 min 0 min 0 W/m 6,4 km/h (2 Bft) 93,48 %
13.04.2019 01:08 2,8 C 1,7 C 1,7 C 79 % 1023,1 hPa 0,0 l/m 0 min 0 min 0 W/m 6,4 km/h (2 Bft) 95,74 %
13.04.2019 01:10 2,8 C 1,7 C 1,7 C 79 % 1023,0 hPa 0,0 l/m 0 min 0 min 0 W/m 3,2 km/h (1 Bft) 93,62 %
13.04.2019 01:12 2,8 C 1,7 C 1,7 C 79 % 1023,0 hPa 0,0 l/m 0 min 0 min 0 W/m 6,4 km/h (2 Bft) 93,62 %
13.04.2019 01:14 2,8 C 1,7 C 1,7 C 79 % 1023,0 hPa 0,0 l/m 0 min 0 min 0 W/m 6,4 km/h (2 Bft) 95,74 %
13.04.2019 01:16 2,8 C 2,2 C 1,7 C 79 % 1023,1 hPa 0,0 l/m 0 min 0 min 0 W/m 9,7 km/h (2 Bft) 95,74 %
13.04.2019 01:18 2,7 C 2,2 C 1,7 C 80 % 1023,1 hPa 0,0 l/m 0 min 0 min 0 W/m 6,4 km/h (2 Bft) 95,65 %
13.04.2019 01:20 2,7 C 1,7 C 1,7 C 80 % 1023,1 hPa 0,0 l/m 0 min 0 min 0 W/m 12,9 km/h (3 Bft) 95,74 %
13.04.2019 01:22 2,7 C 2,2 C 1,7 C 80 % 1023,0 hPa 0,0 l/m 0 min 0 min 0 W/m 12,9 km/h (3 Bft) 97,87 %
13.04.2019 01:24 2,7 C 2,2 C 1,7 C 80 % 1023,1 hPa 0,0 l/m 0 min 0 min 0 W/m 9,7 km/h (2 Bft) 97,87 %
13.04.2019 01:26 2,7 C 2,2 C 1,7 C 80 % 1023,0 hPa 0,0 l/m 0 min 0 min 0 W/m 16,1 km/h (3 Bft) 95,74 %
13.04.2019 01:28 2,7 C 2,2 C 1,7 C 80 % 1023,0 hPa 0,0 l/m 0 min 0 min 0 W/m 6,4 km/h (2 Bft) 95,65 %
13.04.2019 01:30 2,7 C 2,2 C 1,7 C 80 % 1023,1 hPa 0,0 l/m 0 min 0 min 0 W/m 6,4 km/h (2 Bft) 97,87 %
13.04.2019 01:32 2,7 C 2,2 C 1,7 C 81 % 1023,0 hPa 0,0 l/m 0 min 0 min 0 W/m 12,9 km/h (3 Bft) 95,74 %
13.04.2019 01:34 2,7 C 2,2 C 1,7 C 81 % 1023,1 hPa 0,0 l/m 0 min 0 min 0 W/m 6,4 km/h (2 Bft) 97,87 %
13.04.2019 01:36 2,7 C 2,2 C 1,7 C 81 % 1023,0 hPa 0,0 l/m 0 min 0 min 0 W/m 3,2 km/h (1 Bft) 97,87 %
13.04.2019 01:38 2,7 C 1,7 C 1,7 C 81 % 1023,1 hPa 0,0 l/m 0 min 0 min 0 W/m 9,7 km/h (2 Bft) 95,74 %
13.04.2019 01:40 2,7 C 1,7 C 1,7 C 81 % 1023,1 hPa 0,0 l/m 0 min 0 min 0 W/m 6,4 km/h (2 Bft) 97,83 %
13.04.2019 01:42 2,7 C 1,7 C 1,7 C 81 % 1023,0 hPa 0,0 l/m 0 min 0 min 0 W/m 9,7 km/h (2 Bft) 97,87 %
13.04.2019 01:44 2,7 C 2,2 C 1,7 C 81 % 1023,0 hPa 0,0 l/m 0 min 0 min 0 W/m 6,4 km/h (2 Bft) 97,87 %
13.04.2019 01:46 2,7 C 2,2 C 1,7 C 81 % 1023,0 hPa 0,0 l/m 0 min 0 min 0 W/m 6,4 km/h (2 Bft) 95,74 %
13.04.2019 01:48 2,7 C 2,2 C 1,7 C 81 % 1023,0 hPa 0,0 l/m 0 min 0 min 0 W/m 6,4 km/h (2 Bft) 100,00 %
13.04.2019 01:50 2,7 C 2,2 C 1,7 C 81 % 1023,0 hPa 0,0 l/m 0 min 0 min 0 W/m 9,7 km/h (2 Bft) 100,00 %
13.04.2019 01:52 2,7 C 2,2 C 1,7 C 81 % 1023,0 hPa 0,0 l/m 0 min 0 min 0 W/m 6,4 km/h (2 Bft) 97,83 %
13.04.2019 01:54 2,7 C 2,2 C 1,7 C 81 % 1023,0 hPa 0,0 l/m 0 min 0 min 0 W/m 9,7 km/h (2 Bft) 100,00 %
13.04.2019 01:56 2,7 C 2,2 C 1,7 C 82 % 1023,0 hPa 0,0 l/m 0 min 0 min 0 W/m 9,7 km/h (2 Bft) 100,00 %
13.04.2019 01:58 2,7 C 2,2 C 1,7 C 82 % 1023,0 hPa 0,0 l/m 0 min 0 min 0 W/m 6,4 km/h (2 Bft) 97,87 %
13.04.2019 02:00 2,7 C 2,2 C 1,7 C 82 % 1023,0 hPa 0,0 l/m 0 min 0 min 0 W/m 3,2 km/h (1 Bft) 97,87 %
13.04.2019 02:02 2,7 C 2,2 C 1,7 C 82 % 1023,0 hPa 0,0 l/m 0 min 0 min 0 W/m 6,4 km/h (2 Bft) 97,87 %
13.04.2019 02:04 2,7 C 2,2 C 1,7 C 82 % 1023,0 hPa 0,0 l/m 0 min 0 min 0 W/m 6,4 km/h (2 Bft) 100,00 %
13.04.2019 02:06 2,7 C 2,2 C 1,7 C 82 % 1023,0 hPa 0,0 l/m 0 min 0 min 0 W/m 3,2 km/h (1 Bft) 100,00 %
13.04.2019 02:08 2,7 C 2,2 C 1,7 C 82 % 1023,0 hPa 0,0 l/m 0 min 0 min 0 W/m 6,4 km/h (2 Bft) 100,00 %
13.04.2019 02:10 2,7 C 2,2 C 1,7 C 82 % 1023,0 hPa 0,0 l/m 0 min 0 min 0 W/m 6,4 km/h (2 Bft) 100,00 %
13.04.2019 02:12 2,7 C 1,7 C 1,7 C 82 % 1022,9 hPa 0,0 l/m 0 min 0 min 0 W/m 6,4 km/h (2 Bft) 100,00 %
13.04.2019 02:14 2,7 C 1,7 C 1,7 C 82 % 1023,0 hPa 0,0 l/m 0 min 0 min 0 W/m 6,4 km/h (2 Bft) 97,87 %
13.04.2019 02:16 2,7 C 2,2 C 1,7 C 82 % 1022,9 hPa 0,0 l/m 0 min 0 min 0 W/m 9,7 km/h (2 Bft) 100,00 %
13.04.2019 02:18 2,7 C 2,2 C 1,7 C 82 % 1022,9 hPa 0,0 l/m 0 min 0 min 0 W/m 3,2 km/h (1 Bft) 100,00 %
13.04.2019 02:20 2,7 C 2,2 C 1,7 C 82 % 1022,9 hPa 0,0 l/m 0 min 0 min 0 W/m 6,4 km/h (2 Bft) 100,00 %
13.04.2019 02:22 2,7 C 2,2 C 1,7 C 82 % 1022,9 hPa 0,0 l/m 0 min 0 min 0 W/m 12,9 km/h (3 Bft) 100,00 %
13.04.2019 02:24 2,7 C 2,2 C 1,7 C 82 % 1022,9 hPa 0,0 l/m 0 min 0 min 0 W/m 9,7 km/h (2 Bft) 100,00 %
13.04.2019 02:26 2,7 C 2,2 C 1,7 C 83 % 1022,9 hPa 0,0 l/m 0 min 0 min 0 W/m 6,4 km/h (2 Bft) 97,83 %
13.04.2019 02:28 2,7 C 2,2 C 1,7 C 83 % 1022,9 hPa 0,0 l/m 0 min 0 min 0 W/m 12,9 km/h (3 Bft) 100,00 %
13.04.2019 02:30 2,7 C 2,2 C 1,7 C 83 % 1022,9 hPa 0,0 l/m 0 min 0 min 0 W/m 6,4 km/h (2 Bft) 100,00 %
13.04.2019 02:32 2,7 C 2,2 C 1,7 C 83 % 1022,9 hPa 0,0 l/m 0 min 0 min 0 W/m 6,4 km/h (2 Bft) 97,87 %
13.04.2019 02:34 2,7 C 2,2 C 1,7 C 83 % 1022,9 hPa 0,0 l/m 0 min 0 min 0 W/m 6,4 km/h (2 Bft) 100,00 %
13.04.2019 02:36 2,7 C 2,2 C 1,7 C 83 % 1022,8 hPa 0,0 l/m 0 min 0 min 0 W/m 6,4 km/h (2 Bft) 97,87 %
13.04.2019 02:38 2,7 C 2,2 C 1,7 C 83 % 1022,8 hPa 0,0 l/m 0 min 0 min 0 W/m 0,0 km/h (0 Bft) 100,00 %
13.04.2019 02:40 2,7 C 2,2 C 1,7 C 83 % 1022,8 hPa 0,0 l/m 0 min 0 min 0 W/m 6,4 km/h (2 Bft) 97,87 %
13.04.2019 02:42 2,7 C 2,2 C 1,7 C 83 % 1022,8 hPa 0,0 l/m 0 min 0 min 0 W/m 6,4 km/h (2 Bft) 97,87 %
13.04.2019 02:44 2,7 C 2,2 C 1,7 C 83 % 1022,8 hPa 0,0 l/m 0 min 0 min 0 W/m 6,4 km/h (2 Bft) 95,74 %
13.04.2019 02:46 2,7 C 1,7 C 1,7 C 83 % 1022,8 hPa 0,0 l/m 0 min 0 min 0 W/m 9,7 km/h (2 Bft) 95,74 %
13.04.2019 02:48 2,7 C 1,7 C 1,7 C 83 % 1022,8 hPa 0,0 l/m 0 min 0 min 0 W/m 6,4 km/h (2 Bft) 95,74 %
13.04.2019 02:50 2,7 C 1,7 C 1,7 C 83 % 1022,8 hPa 0,0 l/m 0 min 0 min 0 W/m 6,4 km/h (2 Bft) 97,83 %
13.04.2019 02:52 2,7 C 1,7 C 1,7 C 83 % 1022,7 hPa 0,0 l/m 0 min 0 min 0 W/m 6,4 km/h (2 Bft) 97,87 %
13.04.2019 02:54 2,6 C 2,2 C 1,7 C 83 % 1022,7 hPa 0,0 l/m 0 min 0 min 0 W/m 6,4 km/h (2 Bft) 93,62 %
13.04.2019 02:56 2,6 C 1,7 C 1,7 C 83 % 1022,7 hPa 0,0 l/m 0 min 0 min 0 W/m 6,4 km/h (2 Bft) 93,62 %
13.04.2019 02:58 2,6 C 1,7 C 1,7 C 83 % 1022,7 hPa 0,0 l/m 0 min 0 min 0 W/m 3,2 km/h (1 Bft) 95,74 %
13.04.2019 03:00 2,6 C 1,7 C 1,7 C 83 % 1022,8 hPa 0,0 l/m 0 min 0 min 0 W/m 3,2 km/h (1 Bft) 95,74 %
13.04.2019 03:02 2,6 C 1,7 C 1,1 C 83 % 1022,8 hPa 0,0 l/m 0 min 0 min 0 W/m 0,0 km/h (0 Bft) 95,65 %
13.04.2019 03:04 2,6 C 1,7 C 1,1 C 83 % 1022,8 hPa 0,0 l/m 0 min 0 min 0 W/m 0,0 km/h (0 Bft) 95,74 %
13.04.2019 03:06 2,6 C 1,7 C 1,1 C 83 % 1022,8 hPa 0,0 l/m 0 min 0 min 0 W/m 3,2 km/h (1 Bft) 95,74 %
13.04.2019 03:08 2,6 C 1,7 C 1,1 C 83 % 1022,7 hPa 0,0 l/m 0 min 0 min 0 W/m 3,2 km/h (1 Bft) 95,74 %
13.04.2019 03:10 2,6 C 1,7 C 1,1 C 83 % 1022,7 hPa 0,0 l/m 0 min 0 min 0 W/m 3,2 km/h (1 Bft) 93,62 %
13.04.2019 03:12 2,6 C 1,7 C 1,1 C 83 % 1022,7 hPa 0,0 l/m 0 min 0 min 0 W/m 0,0 km/h (0 Bft) 95,74 %
13.04.2019 03:14 2,5 C 1,7 C 1,1 C 83 % 1022,8 hPa 0,0 l/m 0 min 0 min 0 W/m 3,2 km/h (1 Bft) 95,65 %
13.04.2019 03:16 2,5 C 1,7 C 1,1 C 83 % 1022,8 hPa 0,0 l/m 0 min 0 min 0 W/m 3,2 km/h (1 Bft) 95,74 %
13.04.2019 03:18 2,5 C 1,7 C 1,1 C 83 % 1022,8 hPa 0,0 l/m 0 min 0 min 0 W/m 3,2 km/h (1 Bft) 95,74 %
13.04.2019 03:20 2,5 C 1,7 C 1,1 C 83 % 1022,7 hPa 0,0 l/m 0 min 0 min 0 W/m 6,4 km/h (2 Bft) 93,62 %
13.04.2019 03:22 2,5 C 1,7 C 1,1 C 83 % 1022,7 hPa 0,0 l/m 0 min 0 min 0 W/m 9,7 km/h (2 Bft) 95,83 %
13.04.2019 03:24 2,4 C 1,7 C 1,1 C 83 % 1022,7 hPa 0,0 l/m 0 min 0 min 0 W/m 6,4 km/h (2 Bft) 95,65 %
13.04.2019 03:26 2,4 C 1,1 C 1,1 C 83 % 1022,7 hPa 0,0 l/m 0 min 0 min 0 W/m 3,2 km/h (1 Bft) 95,74 %
13.04.2019 03:28 2,4 C 1,1 C 1,1 C 83 % 1022,7 hPa 0,0 l/m 0 min 0 min 0 W/m 3,2 km/h (1 Bft) 95,74 %
13.04.2019 03:30 2,4 C 1,1 C 1,1 C 83 % 1022,7 hPa 0,0 l/m 0 min 0 min 0 W/m 0,0 km/h (0 Bft) 95,74 %
13.04.2019 03:32 2,4 C 1,1 C 0,6 C 83 % 1022,8 hPa 0,0 l/m 0 min 0 min 0 W/m 0,0 km/h (0 Bft) 97,87 %
13.04.2019 03:34 2,3 C 1,1 C 0,6 C 83 % 1022,7 hPa 0,0 l/m 0 min 0 min 0 W/m 0,0 km/h (0 Bft) 97,87 %
13.04.2019 03:36 2,3 C 1,1 C 0,6 C 83 % 1022,7 hPa 0,0 l/m 0 min 0 min 0 W/m 3,2 km/h (1 Bft) 93,62 %
13.04.2019 03:38 2,3 C 1,1 C 0,6 C 83 % 1022,7 hPa 0,0 l/m 0 min 0 min 0 W/m 6,4 km/h (2 Bft) 97,83 %
13.04.2019 03:40 2,3 C 1,1 C 0,6 C 84 % 1022,7 hPa 0,0 l/m 0 min 0 min 0 W/m 6,4 km/h (2 Bft) 97,87 %
13.04.2019 03:42 2,2 C 1,1 C 0,6 C 84 % 1022,6 hPa 0,0 l/m 0 min 0 min 0 W/m 6,4 km/h (2 Bft) 93,62 %
13.04.2019 03:44 2,2 C 1,1 C 0,6 C 84 % 1022,6 hPa 0,0 l/m 0 min 0 min 0 W/m 6,4 km/h (2 Bft) 97,87 %
13.04.2019 03:46 2,2 C 1,1 C 0,6 C 84 % 1022,6 hPa 0,0 l/m 0 min 0 min 0 W/m 6,4 km/h (2 Bft) 97,87 %
13.04.2019 03:48 2,1 C 1,1 C 0,6 C 84 % 1022,6 hPa 0,0 l/m 0 min 0 min 0 W/m 9,7 km/h (2 Bft) 95,65 %
13.04.2019 03:50 2,1 C 0,6 C 0,6 C 84 % 1022,7 hPa 0,0 l/m 0 min 0 min 0 W/m 3,2 km/h (1 Bft) 95,74 %
13.04.2019 03:52 2,1 C 0,6 C 0,6 C 84 % 1022,7 hPa 0,0 l/m 0 min 0 min 0 W/m 0,0 km/h (0 Bft) 97,87 %
13.04.2019 03:54 2,0 C 0,6 C 0,6 C 84 % 1022,6 hPa 0,0 l/m 0 min 0 min 0 W/m 3,2 km/h (1 Bft) 97,87 %
13.04.2019 03:56 2,0 C 0,6 C 0,0 C 84 % 1022,6 hPa 0,0 l/m 0 min 0 min 0 W/m 0,0 km/h (0 Bft) 97,87 %
13.04.2019 03:58 1,9 C 0,6 C 0,0 C 84 % 1022,6 hPa 0,0 l/m 0 min 0 min 0 W/m 3,2 km/h (1 Bft) 95,74 %
13.04.2019 04:00 1,9 C 0,6 C 0,0 C 84 % 1022,6 hPa 0,0 l/m 0 min 0 min 0 W/m 3,2 km/h (1 Bft) 97,83 %
13.04.2019 04:02 1,9 C 0,6 C 0,0 C 84 % 1022,6 hPa 0,0 l/m 0 min 0 min 0 W/m 6,4 km/h (2 Bft) 100,00 %
13.04.2019 04:04 1,9 C 0,6 C 0,0 C 84 % 1022,6 hPa 0,0 l/m 0 min 0 min 0 W/m 9,7 km/h (2 Bft) 100,00 %
13.04.2019 04:06 1,8 C 0,6 C 0,0 C 84 % 1022,6 hPa 0,0 l/m 0 min 0 min 0 W/m 6,4 km/h (2 Bft) 100,00 %
13.04.2019 04:08 1,8 C 0,6 C 0,0 C 84 % 1022,6 hPa 0,0 l/m 0 min 0 min 0 W/m 0,0 km/h (0 Bft) 93,62 %
13.04.2019 04:10 1,8 C 0,6 C 0,0 C 84 % 1022,6 hPa 0,0 l/m 0 min 0 min 0 W/m 3,2 km/h (1 Bft) 97,83 %
13.04.2019 04:12 1,7 C 0,6 C 0,0 C 85 % 1022,5 hPa 0,0 l/m 0 min 0 min 0 W/m 3,2 km/h (1 Bft) 97,87 %
13.04.2019 04:14 1,7 C 0,6 C 0,0 C 85 % 1022,5 hPa 0,0 l/m 0 min 0 min 0 W/m 0,0 km/h (0 Bft) 97,87 %
13.04.2019 04:16 1,7 C 0,0 C 0,0 C 84 % 1022,5 hPa 0,0 l/m 0 min 0 min 0 W/m 0,0 km/h (0 Bft) 95,74 %
13.04.2019 04:18 1,7 C 0,0 C 0,0 C 85 % 1022,5 hPa 0,0 l/m 0 min 0 min 0 W/m 0,0 km/h (0 Bft) 95,74 %
13.04.2019 04:20 1,6 C 0,0 C 0,0 C 85 % 1022,5 hPa 0,0 l/m 0 min 0 min 0 W/m 0,0 km/h (0 Bft) 95,74 %
13.04.2019 04:22 1,6 C 0,0 C -0,6 C 85 % 1022,5 hPa 0,0 l/m 0 min 0 min 0 W/m 0,0 km/h (0 Bft) 97,83 %
13.04.2019 04:24 1,6 C 0,0 C -0,6 C 85 % 1022,6 hPa 0,0 l/m 0 min 0 min 0 W/m 3,2 km/h (1 Bft) 97,87 %
13.04.2019 04:26 1,5 C 0,0 C -0,6 C 85 % 1022,6 hPa 0,0 l/m 0 min 0 min 0 W/m 0,0 km/h (0 Bft) 97,87 %
13.04.2019 04:28 1,5 C 0,0 C -0,6 C 85 % 1022,5 hPa 0,0 l/m 0 min 0 min 0 W/m 0,0 km/h (0 Bft) 97,87 %
13.04.2019 04:30 1,5 C 0,0 C -0,6 C 85 % 1022,5 hPa 0,0 l/m 0 min 0 min 0 W/m 3,2 km/h (1 Bft) 97,87 %
13.04.2019 04:32 1,4 C 0,0 C -0,6 C 85 % 1022,5 hPa 0,0 l/m 0 min 0 min 0 W/m 0,0 km/h (0 Bft) 97,87 %
13.04.2019 04:34 1,4 C 0,0 C -0,6 C 85 % 1022,5 hPa 0,0 l/m 0 min 0 min 0 W/m 0,0 km/h (0 Bft) 97,83 %
13.04.2019 04:36 1,4 C 0,0 C -0,6 C 85 % 1022,5 hPa 0,0 l/m 0 min 0 min 0 W/m 3,2 km/h (1 Bft) 97,87 %
13.04.2019 04:38 1,3 C 0,0 C -0,6 C 85 % 1022,5 hPa 0,0 l/m 0 min 0 min 0 W/m 6,4 km/h (2 Bft) 93,62 %
13.04.2019 04:40 1,3 C 0,0 C -0,6 C 85 % 1022,5 hPa 0,0 l/m 0 min 0 min 0 W/m 3,2 km/h (1 Bft) 97,87 %
13.04.2019 04:42 1,3 C 0,0 C -0,6 C 85 % 1022,5 hPa 0,0 l/m 0 min 0 min 0 W/m 3,2 km/h (1 Bft) 97,87 %
13.04.2019 04:44 1,2 C 0,0 C -0,6 C 85 % 1022,5 hPa 0,0 l/m 0 min 0 min 0 W/m 0,0 km/h (0 Bft) 93,62 %
13.04.2019 04:46 1,2 C 0,0 C -0,6 C 86 % 1022,5 hPa 0,0 l/m 0 min 0 min 0 W/m 6,4 km/h (2 Bft) 95,65 %
13.04.2019 04:48 1,2 C 0,0 C -0,6 C 86 % 1022,5 hPa 0,0 l/m 0 min 0 min 0 W/m 3,2 km/h (1 Bft) 100,00 %
13.04.2019 04:50 1,2 C 0,0 C -0,6 C 86 % 1022,5 hPa 0,0 l/m 0 min 0 min 0 W/m 3,2 km/h (1 Bft) 100,00 %
13.04.2019 04:52 1,2 C 0,0 C -0,6 C 86 % 1022,5 hPa 0,0 l/m 0 min 0 min 0 W/m 3,2 km/h (1 Bft) 95,74 %
13.04.2019 04:54 1,1 C 0,0 C -0,6 C 86 % 1022,4 hPa 0,0 l/m 0 min 0 min 0 W/m 3,2 km/h (1 Bft) 97,87 %
13.04.2019 04:56 1,1 C 0,0 C 0,0 C 86 % 1022,5 hPa 0,0 l/m 0 min 0 min 0 W/m 3,2 km/h (1 Bft) 97,87 %
13.04.2019 04:58 1,1 C 0,0 C -0,6 C 86 % 1022,4 hPa 0,0 l/m 0 min 0 min 0 W/m 3,2 km/h (1 Bft) 97,83 %
13.04.2019 05:00 1,1 C 0,0 C -0,6 C 86 % 1022,4 hPa 0,0 l/m 0 min 0 min 0 W/m 3,2 km/h (1 Bft) 95,74 %
13.04.2019 05:02 1,1 C 0,0 C -0,6 C 86 % 1022,4 hPa 0,0 l/m 0 min 0 min 0 W/m 3,2 km/h (1 Bft) 97,87 %
13.04.2019 05:04 1,0 C 0,0 C -0,6 C 86 % 1022,5 hPa 0,0 l/m 0 min 0 min 0 W/m 3,2 km/h (1 Bft) 95,74 %
13.04.2019 05:05 1,0 C 0,0 C -0,6 C 86 % 1022,5 hPa 0,0 l/m 0 min 0 min 0 W/m 3,2 km/h (1 Bft) 100,00 %
13.04.2019 05:10 1,0 C 0,0 C -0,6 C 86 % 1022,5 hPa 0,0 l/m 0 min 0 min 0 W/m 3,2 km/h (1 Bft) 99,12 %
13.04.2019 05:12 0,9 C 0,0 C -0,6 C 87 % 1022,5 hPa 0,0 l/m 0 min 0 min 0 W/m 0,0 km/h (0 Bft) 100,00 %
13.04.2019 05:14 0,9 C 0,0 C -0,6 C 87 % 1022,5 hPa 0,0 l/m 0 min 0 min 0 W/m 0,0 km/h (0 Bft) 97,37 %
13.04.2019 05:19 0,9 C 0,0 C -0,6 C 87 % 1022,5 hPa 0,0 l/m 0 min 0 min 0 W/m 9,7 km/h (2 Bft) 100,00 %
13.04.2019 05:20 0,9 C 0,0 C -0,6 C 87 % 1022,5 hPa 0,0 l/m 0 min 0 min 0 W/m 0,0 km/h (0 Bft) 90,91 %
13.04.2019 05:22 0,8 C 0,0 C -0,6 C 87 % 1022,5 hPa 0,0 l/m 0 min 0 min 0 W/m 3,2 km/h (1 Bft) 97,87 %
13.04.2019 05:24 0,8 C 0,0 C -0,6 C 87 % 1022,5 hPa 0,0 l/m 0 min 0 min 0 W/m 9,7 km/h (2 Bft) 97,87 %
13.04.2019 05:26 0,8 C 0,0 C -0,6 C 87 % 1022,4 hPa 0,0 l/m 0 min 0 min 0 W/m 6,4 km/h (2 Bft) 97,87 %
13.04.2019 05:28 0,8 C 0,0 C -0,6 C 87 % 1022,6 hPa 0,0 l/m 0 min 0 min 0 W/m 3,2 km/h (1 Bft) 97,87 %
13.04.2019 05:30 0,8 C 0,0 C -0,6 C 87 % 1022,5 hPa 0,0 l/m 0 min 0 min 0 W/m 0,0 km/h (0 Bft) 97,83 %
13.04.2019 05:32 0,8 C 0,0 C -0,6 C 87 % 1022,5 hPa 0,0 l/m 0 min 0 min 0 W/m 0,0 km/h (0 Bft) 100,00 %
13.04.2019 05:34 0,7 C 0,0 C -0,6 C 87 % 1022,5 hPa 0,0 l/m 0 min 0 min 0 W/m 3,2 km/h (1 Bft) 100,00 %
13.04.2019 05:36 0,7 C 0,0 C -0,6 C 87 % 1022,5 hPa 0,0 l/m 0 min 0 min 0 W/m 0,0 km/h (0 Bft) 98,31 %
13.04.2019 05:38 0,7 C 0,0 C -0,6 C 87 % 1022,4 hPa 0,0 l/m 0 min 0 min 0 W/m 0,0 km/h (0 Bft) 100,00 %
13.04.2019 05:40 0,7 C -0,6 C -0,6 C 87 % 1022,4 hPa 0,0 l/m 0 min 0 min 0 W/m 0,0 km/h (0 Bft) 100,00 %
13.04.2019 05:42 0,7 C -0,6 C -0,6 C 87 % 1022,4 hPa 0,0 l/m 0 min 0 min 0 W/m 0,0 km/h (0 Bft) 100,00 %
13.04.2019 05:44 0,7 C -0,6 C -0,6 C 87 % 1022,5 hPa 0,0 l/m 0 min 0 min 0 W/m 3,2 km/h (1 Bft) 100,00 %
13.04.2019 05:46 0,6 C -0,6 C -0,6 C 87 % 1022,5 hPa 0,0 l/m 0 min 0 min 0 W/m 3,2 km/h (1 Bft) 100,00 %
13.04.2019 05:48 0,6 C -0,6 C -0,6 C 87 % 1022,5 hPa 0,0 l/m 0 min 0 min 0 W/m 0,0 km/h (0 Bft) 100,00 %
13.04.2019 05:50 0,6 C -0,6 C -0,6 C 87 % 1022,5 hPa 0,0 l/m 0 min 0 min 0 W/m 0,0 km/h (0 Bft) 95,74 %
13.04.2019 05:52 0,6 C -0,6 C -0,6 C 87 % 1022,5 hPa 0,0 l/m 0 min 0 min 0 W/m 0,0 km/h (0 Bft) 100,00 %
13.04.2019 05:54 0,5 C -0,6 C -0,6 C 87 % 1022,5 hPa 0,0 l/m 0 min 0 min 0 W/m 0,0 km/h (0 Bft) 100,00 %
13.04.2019 05:56 0,5 C -0,6 C -1,1 C 87 % 1022,5 hPa 0,0 l/m 0 min 0 min 0 W/m 0,0 km/h (0 Bft) 97,87 %
13.04.2019 05:58 0,5 C -0,6 C -1,1 C 87 % 1022,5 hPa 0,0 l/m 0 min 0 min 0 W/m 0,0 km/h (0 Bft) 100,00 %
13.04.2019 06:00 0,5 C -0,6 C -1,1 C 88 % 1022,4 hPa 0,0 l/m 0 min 0 min 0 W/m 3,2 km/h (1 Bft) 100,00 %
13.04.2019 06:02 0,5 C -0,6 C -1,1 C 88 % 1022,5 hPa 0,0 l/m 0 min 0 min 0 W/m 0,0 km/h (0 Bft) 100,00 %
13.04.2019 06:04 0,5 C -0,6 C -1,1 C 88 % 1022,6 hPa 0,0 l/m 0 min 0 min 0 W/m 0,0 km/h (0 Bft) 100,00 %
13.04.2019 06:07 0,5 C -0,6 C -1,1 C 88 % 1022,5 hPa 0,0 l/m 0 min 0 min 0 W/m 0,0 km/h (0 Bft) 100,00 %
13.04.2019 06:08 0,5 C -0,6 C -1,1 C 88 % 1022,5 hPa 0,0 l/m 0 min 0 min 0 W/m 0,0 km/h (0 Bft) 100,00 %
13.04.2019 06:10 0,5 C -0,6 C -1,1 C 88 % 1022,5 hPa 0,0 l/m 0 min 0 min 0 W/m 0,0 km/h (0 Bft) 100,00 %
13.04.2019 06:12 0,5 C -0,6 C -1,1 C 88 % 1022,6 hPa 0,0 l/m 0 min 0 min 0 W/m 0,0 km/h (0 Bft) 100,00 %
13.04.2019 06:14 0,4 C -0,6 C -1,1 C 88 % 1022,6 hPa 0,0 l/m 0 min 0 min 0 W/m 3,2 km/h (1 Bft) 100,00 %
13.04.2019 06:16 0,4 C -1,1 C -1,1 C 88 % 1022,5 hPa 0,0 l/m 0 min 0 min 0 W/m 0,0 km/h (0 Bft) 98,31 %
13.04.2019 06:18 0,4 C -1,1 C -1,1 C 88 % 1022,5 hPa 0,0 l/m 0 min 0 min 0 W/m 0,0 km/h (0 Bft) 95,74 %
13.04.2019 06:20 0,4 C -1,1 C -1,7 C 88 % 1022,6 hPa 0,0 l/m 0 min 0 min 0 W/m 0,0 km/h (0 Bft) 100,00 %
13.04.2019 06:22 0,4 C -1,1 C -1,7 C 88 % 1022,5 hPa 0,0 l/m 0 min 0 min 0 W/m 0,0 km/h (0 Bft) 100,00 %
13.04.2019 06:24 0,3 C -1,1 C -1,7 C 88 % 1022,5 hPa 0,0 l/m 0 min 0 min 0 W/m 0,0 km/h (0 Bft) 97,87 %
13.04.2019 06:26 0,3 C -1,1 C -1,7 C 88 % 1022,6 hPa 0,0 l/m 0 min 0 min 0 W/m 0,0 km/h (0 Bft) 100,00 %
13.04.2019 06:28 0,3 C -1,1 C -1,7 C 88 % 1022,6 hPa 0,0 l/m 0 min 0 min 0 W/m 3,2 km/h (1 Bft) 100,00 %
13.04.2019 06:30 0,3 C -1,1 C -1,7 C 88 % 1022,5 hPa 0,0 l/m 0 min 0 min 0 W/m 0,0 km/h (0 Bft) 97,87 %
13.04.2019 06:32 0,2 C -1,1 C -1,7 C 88 % 1022,6 hPa 0,0 l/m 0 min 0 min 0 W/m 0,0 km/h (0 Bft) 97,87 %
13.04.2019 06:34 0,2 C -1,1 C -1,7 C 88 % 1022,6 hPa 0,0 l/m 0 min 0 min 0 W/m 0,0 km/h (0 Bft) 100,00 %
13.04.2019 06:36 0,2 C -1,1 C -1,7 C 88 % 1022,6 hPa 0,0 l/m 0 min 0 min 0 W/m 0,0 km/h (0 Bft) 100,00 %
13.04.2019 06:38 0,2 C -1,1 C -1,7 C 88 % 1022,6 hPa 0,0 l/m 0 min 0 min 0 W/m 0,0 km/h (0 Bft) 100,00 %
13.04.2019 06:40 0,2 C -1,1 C -1,7 C 88 % 1022,7 hPa 0,0 l/m 0 min 0 min 0 W/m 0,0 km/h (0 Bft) 100,00 %
13.04.2019 06:42 0,1 C -1,1 C -1,7 C 88 % 1022,6 hPa 0,0 l/m 0 min 0 min 0 W/m 0,0 km/h (0 Bft) 97,87 %
13.04.2019 06:44 0,1 C -1,7 C -2,2 C 88 % 1022,6 hPa 0,0 l/m 0 min 0 min 0 W/m 0,0 km/h (0 Bft) 95,74 %
13.04.2019 06:46 0,1 C -1,7 C -2,2 C 88 % 1022,6 hPa 0,0 l/m 0 min 0 min 0 W/m 0,0 km/h (0 Bft) 97,87 %
13.04.2019 06:48 0,1 C -1,7 C -2,2 C 88 % 1022,7 hPa 0,0 l/m 0 min 0 min 2 W/m 0,0 km/h (0 Bft) 100,00 %
13.04.2019 06:50 0,0 C -1,7 C -1,7 C 88 % 1022,7 hPa 0,0 l/m 0 min 0 min 5 W/m 3,2 km/h (1 Bft) 100,00 %
13.04.2019 06:52 0,0 C -1,1 C -1,7 C 88 % 1022,7 hPa 0,0 l/m 0 min 0 min 5 W/m 0,0 km/h (0 Bft) 97,87 %
13.04.2019 06:54 -0,1 C -1,1 C -1,7 C 88 % 1022,7 hPa 0,0 l/m 0 min 0 min 6 W/m 0,0 km/h (0 Bft) 97,87 %
13.04.2019 06:56 -0,1 C -1,1 C -1,7 C 88 % 1022,7 hPa 0,0 l/m 0 min 0 min 7 W/m 0,0 km/h (0 Bft) 97,87 %
13.04.2019 06:58 -0,1 C -1,1 C -1,7 C 88 % 1022,7 hPa 0,0 l/m 0 min 0 min 7 W/m 0,0 km/h (0 Bft) 97,87 %
13.04.2019 07:00 -0,1 C -1,1 C -1,7 C 88 % 1022,7 hPa 0,0 l/m 0 min 0 min 9 W/m 0,0 km/h (0 Bft) 97,87 %
13.04.2019 07:02 -0,1 C -1,1 C -1,7 C 88 % 1022,7 hPa 0,0 l/m 0 min 0 min 9 W/m 3,2 km/h (1 Bft) 95,65 %
13.04.2019 07:04 -0,1 C -1,1 C -1,7 C 88 % 1022,7 hPa 0,0 l/m 0 min 0 min 11 W/m 3,2 km/h (1 Bft) 95,74 %
13.04.2019 07:06 -0,2 C -1,1 C -1,7 C 88 % 1022,7 hPa 0,0 l/m 0 min 0 min 11 W/m 0,0 km/h (0 Bft) 96,00 %
13.04.2019 07:08 -0,2 C -1,1 C -1,7 C 88 % 1022,7 hPa 0,0 l/m 0 min 0 min 12 W/m 9,7 km/h (2 Bft) 95,92 %
13.04.2019 07:10 -0,2 C -1,1 C -1,7 C 88 % 1022,8 hPa 0,0 l/m 0 min 0 min 13 W/m 0,0 km/h (0 Bft) 93,62 %
13.04.2019 07:12 -0,2 C -1,1 C -1,7 C 88 % 1022,7 hPa 0,0 l/m 0 min 0 min 14 W/m 3,2 km/h (1 Bft) 90,48 %
13.04.2019 07:14 -0,2 C -1,1 C -1,7 C 88 % 1022,8 hPa 0,0 l/m 0 min 0 min 16 W/m 6,4 km/h (2 Bft) 93,48 %
13.04.2019 07:16 -0,2 C -1,1 C -1,7 C 89 % 1022,8 hPa 0,0 l/m 0 min 0 min 17 W/m 0,0 km/h (0 Bft) 73,47 %
13.04.2019 07:18 -0,2 C -1,1 C -1,7 C 89 % 1022,8 hPa 0,0 l/m 0 min 0 min 18 W/m 0,0 km/h (0 Bft) 93,88 %
13.04.2019 07:20 -0,3 C -1,1 C -1,7 C 89 % 1022,8 hPa 0,0 l/m 0 min 0 min 19 W/m 0,0 km/h (0 Bft) 89,36 %
13.04.2019 07:22 -0,3 C -1,1 C -1,7 C 89 % 1022,8 hPa 0,0 l/m 0 min 0 min 20 W/m 6,4 km/h (2 Bft) 91,49 %
13.04.2019 07:24 -0,3 C -1,1 C -1,7 C 89 % 1022,8 hPa 0,0 l/m 0 min 0 min 21 W/m 0,0 km/h (0 Bft) 95,65 %
13.04.2019 07:26 -0,3 C -1,1 C -1,7 C 89 % 1022,8 hPa 0,0 l/m 0 min 0 min 22 W/m 0,0 km/h (0 Bft) 95,74 %
13.04.2019 07:28 -0,3 C -1,1 C -1,1 C 89 % 1022,8 hPa 0,0 l/m 0 min 0 min 24 W/m 3,2 km/h (1 Bft) 95,74 %
13.04.2019 07:30 -0,3 C -1,1 C -1,1 C 89 % 1022,9 hPa 0,0 l/m 0 min 0 min 25 W/m 0,0 km/h (0 Bft) 95,74 %
13.04.2019 07:32 -0,3 C -1,1 C -1,1 C 89 % 1022,9 hPa 0,0 l/m 0 min 0 min 26 W/m 0,0 km/h (0 Bft) 95,74 %
13.04.2019 07:34 -0,3 C -0,6 C -1,1 C 89 % 1022,9 hPa 0,0 l/m 0 min 0 min 27 W/m 0,0 km/h (0 Bft) 95,83 %
13.04.2019 07:36 -0,3 C -0,6 C -1,1 C 89 % 1022,9 hPa 0,0 l/m 0 min 0 min 28 W/m 3,2 km/h (1 Bft) 93,48 %
13.04.2019 07:38 -0,3 C -0,6 C -1,1 C 89 % 1022,9 hPa 0,0 l/m 0 min 0 min 30 W/m 0,0 km/h (0 Bft) 95,74 %
13.04.2019 07:40 -0,3 C -0,6 C -1,1 C 89 % 1022,8 hPa 0,0 l/m 0 min 0 min 30 W/m 0,0 km/h (0 Bft) 93,62 %
13.04.2019 07:42 -0,3 C -0,6 C -1,1 C 89 % 1022,9 hPa 0,0 l/m 0 min 0 min 30 W/m 3,2 km/h (1 Bft) 95,74 %
13.04.2019 07:44 -0,3 C -0,6 C -1,1 C 89 % 1022,9 hPa 0,0 l/m 0 min 0 min 32 W/m 3,2 km/h (1 Bft) 93,62 %
13.04.2019 07:46 -0,3 C -0,6 C -1,1 C 89 % 1022,9 hPa 0,0 l/m 0 min 0 min 32 W/m 9,7 km/h (2 Bft) 93,48 %
13.04.2019 07:48 -0,3 C -0,6 C -1,1 C 89 % 1022,9 hPa 0,0 l/m 0 min 0 min 32 W/m 6,4 km/h (2 Bft) 95,74 %
13.04.2019 07:50 -0,3 C -0,6 C -1,1 C 90 % 1022,9 hPa 0,0 l/m 0 min 0 min 33 W/m 3,2 km/h (1 Bft) 93,62 %
13.04.2019 07:52 -0,3 C -0,6 C -0,6 C 90 % 1022,8 hPa 0,0 l/m 0 min 0 min 33 W/m 0,0 km/h (0 Bft) 97,87 %
13.04.2019 07:54 -0,3 C -0,6 C -0,6 C 90 % 1022,9 hPa 0,0 l/m 0 min 0 min 34 W/m 6,4 km/h (2 Bft) 95,74 %
13.04.2019 07:56 -0,3 C 0,0 C -0,6 C 90 % 1022,9 hPa 0,0 l/m 0 min 0 min 35 W/m 0,0 km/h (0 Bft) 97,87 %
13.04.2019 07:58 -0,3 C 0,0 C -0,6 C 90 % 1022,8 hPa 0,0 l/m 0 min 0 min 35 W/m 9,7 km/h (2 Bft) 97,83 %
13.04.2019 08:00 -0,2 C 0,0 C -0,6 C 90 % 1022,8 hPa 0,0 l/m 0 min 0 min 37 W/m 0,0 km/h (0 Bft) 93,62 %
13.04.2019 08:02 -0,2 C 0,0 C -0,6 C 90 % 1022,9 hPa 0,0 l/m 0 min 0 min 37 W/m 6,4 km/h (2 Bft) 93,62 %
13.04.2019 08:04 -0,2 C 0,0 C -0,6 C 90 % 1022,9 hPa 0,0 l/m 0 min 0 min 39 W/m 6,4 km/h (2 Bft) 97,87 %
13.04.2019 08:06 -0,2 C 0,0 C -0,6 C 90 % 1022,9 hPa 0,0 l/m 0 min 0 min 39 W/m 12,9 km/h (3 Bft) 97,87 %
13.04.2019 08:08 -0,1 C 0,0 C -0,6 C 90 % 1023,0 hPa 0,0 l/m 0 min 0 min 39 W/m 9,7 km/h (2 Bft) 95,74 %
13.04.2019 08:10 -0,1 C 0,0 C -0,6 C 90 % 1022,9 hPa 0,0 l/m 0 min 0 min 39 W/m 3,2 km/h (1 Bft) 95,65 %
13.04.2019 08:12 -0,1 C 0,0 C -0,6 C 90 % 1023,0 hPa 0,0 l/m 0 min 0 min 41 W/m 3,2 km/h (1 Bft) 95,74 %
13.04.2019 08:14 -0,1 C 0,0 C 0,0 C 90 % 1023,0 hPa 0,0 l/m 0 min 0 min 43 W/m 6,4 km/h (2 Bft) 100,00 %
13.04.2019 08:16 0,0 C 0,6 C 0,0 C 90 % 1023,0 hPa 0,0 l/m 0 min 0 min 45 W/m 16,1 km/h (3 Bft) 100,00 %
13.04.2019 08:18 0,0 C 0,6 C 0,0 C 90 % 1023,0 hPa 0,0 l/m 0 min 0 min 47 W/m 12,9 km/h (3 Bft) 100,00 %
13.04.2019 08:20 0,1 C 0,6 C 0,0 C 91 % 1023,0 hPa 0,0 l/m 0 min 0 min 47 W/m 9,7 km/h (2 Bft) 95,74 %
13.04.2019 08:22 0,1 C 0,6 C 0,0 C 91 % 1023,0 hPa 0,0 l/m 0 min 0 min 49 W/m 3,2 km/h (1 Bft) 100,00 %
13.04.2019 08:24 0,1 C 0,6 C 0,0 C 91 % 1023,0 hPa 0,0 l/m 0 min 0 min 49 W/m 6,4 km/h (2 Bft) 97,87 %
13.04.2019 08:26 0,1 C 0,6 C 0,0 C 91 % 1023,0 hPa 0,0 l/m 0 min 0 min 49 W/m 19,3 km/h (3 Bft) 100,00 %
13.04.2019 08:28 0,2 C 0,6 C 0,0 C 91 % 1023,0 hPa 0,0 l/m 0 min 0 min 51 W/m 12,9 km/h (3 Bft) 100,00 %
13.04.2019 08:30 0,2 C 0,6 C 0,0 C 91 % 1023,1 hPa 0,0 l/m 0 min 0 min 53 W/m 12,9 km/h (3 Bft) 93,62 %
13.04.2019 08:32 0,2 C 0,6 C 0,0 C 91 % 1023,1 hPa 0,0 l/m 0 min 0 min 54 W/m 16,1 km/h (3 Bft) 100,00 %
13.04.2019 08:34 0,2 C 0,6 C 0,0 C 91 % 1023,0 hPa 0,0 l/m 0 min 0 min 56 W/m 16,1 km/h (3 Bft) 100,00 %
13.04.2019 08:36 0,2 C 0,6 C 0,6 C 91 % 1023,1 hPa 0,0 l/m 0 min 0 min 57 W/m 9,7 km/h (2 Bft) 100,00 %
13.04.2019 08:38 0,3 C 0,6 C 0,6 C 91 % 1023,1 hPa 0,0 l/m 0 min 0 min 59 W/m 12,9 km/h (3 Bft) 100,00 %
13.04.2019 08:40 0,3 C 1,1 C 0,6 C 91 % 1023,1 hPa 0,0 l/m 0 min 0 min 61 W/m 9,7 km/h (2 Bft) 95,24 %
13.04.2019 08:42 0,4 C 1,1 C 0,6 C 91 % 1023,1 hPa 0,0 l/m 0 min 0 min 62 W/m 12,9 km/h (3 Bft) 95,74 %
13.04.2019 08:44 0,4 C 1,1 C 0,6 C 91 % 1023,1 hPa 0,0 l/m 0 min 0 min 65 W/m 12,9 km/h (3 Bft) 97,87 %
13.04.2019 08:46 0,5 C 1,1 C 0,6 C 90 % 1023,2 hPa 0,0 l/m 0 min 0 min 70 W/m 6,4 km/h (2 Bft) 97,83 %
13.04.2019 08:48 0,5 C 1,7 C 1,1 C 91 % 1023,1 hPa 0,0 l/m 0 min 0 min 74 W/m 9,7 km/h (2 Bft) 89,36 %
13.04.2019 08:50 0,5 C 1,7 C 1,1 C 91 % 1023,1 hPa 0,0 l/m 0 min 0 min 76 W/m 12,9 km/h (3 Bft) 97,87 %
13.04.2019 08:52 0,5 C 1,7 C 1,1 C 91 % 1023,0 hPa 0,0 l/m 0 min 0 min 76 W/m 12,9 km/h (3 Bft) 97,87 %
13.04.2019 08:54 0,6 C 2,2 C 1,1 C 91 % 1023,1 hPa 0,0 l/m 0 min 0 min 76 W/m 12,9 km/h (3 Bft) 91,49 %
13.04.2019 08:56 0,7 C 2,2 C 1,1 C 90 % 1023,1 hPa 0,0 l/m 0 min 0 min 77 W/m 9,7 km/h (2 Bft) 95,74 %
13.04.2019 08:58 0,7 C 2,2 C 1,7 C 90 % 1023,1 hPa 0,0 l/m 0 min 0 min 78 W/m 12,9 km/h (3 Bft) 95,65 %
13.04.2019 09:00 0,8 C 2,2 C 1,7 C 90 % 1023,0 hPa 0,0 l/m 0 min 0 min 79 W/m 9,7 km/h (2 Bft) 97,87 %
13.04.2019 09:02 0,9 C 2,8 C 1,7 C 90 % 1023,0 hPa 0,0 l/m 0 min 0 min 82 W/m 12,9 km/h (3 Bft) 98,04 %
13.04.2019 09:04 0,9 C 4,4 C 1,7 C 90 % 1023,0 hPa 0,0 l/m 0 min 0 min 83 W/m 16,1 km/h (3 Bft) 97,83 %
13.04.2019 09:06 1,1 C 5,0 C 1,7 C 90 % 1023,0 hPa 0,0 l/m 0 min 0 min 81 W/m 19,3 km/h (3 Bft) 95,74 %
13.04.2019 09:08 1,1 C 6,1 C 1,7 C 90 % 1023,0 hPa 0,0 l/m 0 min 0 min 81 W/m 9,7 km/h (2 Bft) 95,74 %
13.04.2019 09:10 1,2 C 6,7 C 1,7 C 90 % 1023,0 hPa 0,0 l/m 0 min 0 min 78 W/m 12,9 km/h (3 Bft) 97,83 %
13.04.2019 09:12 1,3 C 6,7 C 1,7 C 90 % 1023,0 hPa 0,0 l/m 0 min 0 min 84 W/m 12,9 km/h (3 Bft) 97,87 %
13.04.2019 09:14 1,4 C 6,7 C 1,7 C 90 % 1023,0 hPa 0,0 l/m 0 min 0 min 86 W/m 9,7 km/h (2 Bft) 97,87 %
13.04.2019 09:16 1,5 C 6,7 C 1,7 C 90 % 1023,0 hPa 0,0 l/m 0 min 0 min 85 W/m 16,1 km/h (3 Bft) 97,87 %
13.04.2019 09:18 1,6 C 7,2 C 2,2 C 89 % 1023,0 hPa 0,0 l/m 0 min 0 min 84 W/m 22,5 km/h (4 Bft) 97,87 %
13.04.2019 09:20 1,8 C 7,2 C 2,2 C 89 % 1023,0 hPa 0,0 l/m 0 min 0 min 86 W/m 6,4 km/h (2 Bft) 97,83 %
13.04.2019 09:22 1,9 C 7,8 C 2,2 C 89 % 1023,0 hPa 0,0 l/m 0 min 0 min 86 W/m 12,9 km/h (3 Bft) 97,87 %
13.04.2019 09:24 2,1 C 8,3 C 2,8 C 89 % 1023,0 hPa 0,0 l/m 0 min 0 min 88 W/m 6,4 km/h (2 Bft) 97,87 %
13.04.2019 09:26 2,2 C 8,3 C 2,8 C 89 % 1022,9 hPa 0,0 l/m 0 min 0 min 84 W/m 9,7 km/h (2 Bft) 97,87 %
13.04.2019 09:28 2,3 C 8,3 C 2,8 C 88 % 1022,9 hPa 0,0 l/m 0 min 0 min 84 W/m 19,3 km/h (3 Bft) 95,74 %
13.04.2019 09:30 2,5 C 8,9 C 2,8 C 88 % 1023,0 hPa 0,0 l/m 0 min 0 min 84 W/m 9,7 km/h (2 Bft) 97,96 %
13.04.2019 09:32 2,6 C 8,9 C 3,3 C 88 % 1023,0 hPa 0,0 l/m 0 min 0 min 87 W/m 12,9 km/h (3 Bft) 97,83 %
13.04.2019 09:34 2,8 C 8,9 C 3,3 C 87 % 1023,0 hPa 0,0 l/m 0 min 0 min 86 W/m 9,7 km/h (2 Bft) 95,74 %
13.04.2019 09:36 2,9 C 9,4 C 3,9 C 86 % 1022,9 hPa 0,0 l/m 0 min 0 min 84 W/m 12,9 km/h (3 Bft) 93,62 %
13.04.2019 09:38 3,1 C 9,4 C 3,3 C 86 % 1022,9 hPa 0,0 l/m 0 min 0 min 84 W/m 9,7 km/h (2 Bft) 95,74 %
13.04.2019 09:40 3,3 C 10,0 C 3,9 C 86 % 1022,9 hPa 0,0 l/m 0 min 0 min 84 W/m 19,3 km/h (3 Bft) 95,24 %
13.04.2019 09:42 3,4 C 10,0 C 4,4 C 85 % 1022,9 hPa 0,0 l/m 0 min 0 min 84 W/m 19,3 km/h (3 Bft) 95,74 %
13.04.2019 09:44 3,6 C 9,4 C 5,6 C 84 % 1022,9 hPa 0,0 l/m 0 min 0 min 84 W/m 12,9 km/h (3 Bft) 95,74 %
13.04.2019 09:46 3,7 C 10,0 C 7,2 C 84 % 1022,9 hPa 0,0 l/m 0 min 0 min 86 W/m 19,3 km/h (3 Bft) 95,65 %
13.04.2019 09:48 3,8 C 10,0 C 8,3 C 83 % 1022,9 hPa 0,0 l/m 0 min 0 min 87 W/m 9,7 km/h (2 Bft) 95,74 %
13.04.2019 09:50 3,9 C 10,6 C 8,3 C 82 % 1022,8 hPa 0,0 l/m 0 min 0 min 89 W/m 9,7 km/h (2 Bft) 95,74 %
13.04.2019 09:52 4,1 C 10,0 C 8,9 C 82 % 1022,8 hPa 0,0 l/m 0 min 0 min 92 W/m 19,3 km/h (3 Bft) 95,74 %
13.04.2019 09:54 4,2 C 10,6 C 9,4 C 81 % 1022,8 hPa 0,0 l/m 0 min 0 min 98 W/m 12,9 km/h (3 Bft) 93,62 %
13.04.2019 09:56 4,3 C 10,6 C 9,4 C 81 % 1022,8 hPa 0,0 l/m 0 min 0 min 112 W/m 12,9 km/h (3 Bft) 95,65 %
13.04.2019 09:58 4,4 C 11,1 C 9,4 C 80 % 1022,8 hPa 0,0 l/m 0 min 0 min 123 W/m 12,9 km/h (3 Bft) 93,62 %
13.04.2019 10:00 4,6 C 11,1 C 9,4 C 80 % 1022,8 hPa 0,0 l/m 0 min 0 min 160 W/m 6,4 km/h (2 Bft) 95,74 %
13.04.2019 10:02 4,7 C 11,7 C 9,4 C 79 % 1022,7 hPa 0,0 l/m 0 min 0 min 203 W/m 12,9 km/h (3 Bft) 95,74 %
13.04.2019 10:04 4,8 C 10,6 C 9,4 C 79 % 1022,9 hPa 0,0 l/m 2 min 0 min 266 W/m 12,9 km/h (3 Bft) 93,62 %
13.04.2019 10:06 4,9 C 10,0 C 8,9 C 78 % 1022,9 hPa 0,0 l/m 2 min 0 min 304 W/m 12,9 km/h (3 Bft) 94,00 %
13.04.2019 10:08 5,1 C 8,3 C 7,8 C 78 % 1022,9 hPa 0,0 l/m 0 min 0 min 160 W/m 9,7 km/h (2 Bft) 91,30 %
13.04.2019 10:10 5,1 C 7,8 C 6,7 C 77 % 1022,9 hPa 0,0 l/m 0 min 0 min 167 W/m 9,7 km/h (2 Bft) 93,62 %
13.04.2019 10:12 5,1 C 7,8 C 7,2 C 77 % 1022,9 hPa 0,0 l/m 0 min 0 min 179 W/m 19,3 km/h (3 Bft) 95,74 %
13.04.2019 10:14 5,1 C 7,8 C 7,2 C 77 % 1022,8 hPa 0,0 l/m 0 min 0 min 179 W/m 9,7 km/h (2 Bft) 93,62 %
13.04.2019 10:16 5,1 C 6,7 C 6,1 C 77 % 1022,9 hPa 0,0 l/m 0 min 0 min 158 W/m 9,7 km/h (2 Bft) 95,74 %
13.04.2019 10:18 5,1 C 6,1 C 5,6 C 76 % 1022,9 hPa 0,0 l/m 0 min 0 min 168 W/m 12,9 km/h (3 Bft) 97,92 %
13.04.2019 10:20 5,1 C 5,6 C 5,0 C 76 % 1022,8 hPa 0,0 l/m 0 min 0 min 160 W/m 22,5 km/h (4 Bft) 95,74 %
13.04.2019 10:22 5,0 C 5,6 C 5,0 C 76 % 1022,8 hPa 0,0 l/m 0 min 0 min 159 W/m 12,9 km/h (3 Bft) 93,62 %
13.04.2019 10:24 4,9 C 6,7 C 5,6 C 76 % 1022,8 hPa 0,0 l/m 0 min 0 min 159 W/m 12,9 km/h (3 Bft) 93,62 %
13.04.2019 10:26 4,9 C 6,7 C 6,1 C 76 % 1022,8 hPa 0,0 l/m 0 min 0 min 184 W/m 9,7 km/h (2 Bft) 95,74 %
13.04.2019 10:28 4,9 C 7,2 C 6,7 C 76 % 1022,7 hPa 0,0 l/m 0 min 0 min 204 W/m 16,1 km/h (3 Bft) 95,74 %
13.04.2019 10:30 4,9 C 10,0 C 8,9 C 76 % 1022,7 hPa 0,0 l/m 2 min 0 min 338 W/m 12,9 km/h (3 Bft) 97,83 %
13.04.2019 10:32 5,1 C 10,6 C 9,4 C 77 % 1022,7 hPa 0,0 l/m 2 min 0 min 619 W/m 19,3 km/h (3 Bft) 95,74 %
13.04.2019 10:34 5,2 C 11,7 C 11,1 C 77 % 1022,7 hPa 0,0 l/m 2 min 0 min 639 W/m 29,0 km/h (5 Bft) 95,74 %
13.04.2019 10:36 5,4 C 13,3 C 12,8 C 76 % 1022,7 hPa 0,0 l/m 2 min 0 min 666 W/m 9,7 km/h (2 Bft) 95,74 %
13.04.2019 10:38 5,7 C 13,9 C 12,8 C 76 % 1022,7 hPa 0,0 l/m 2 min 0 min 698 W/m 19,3 km/h (3 Bft) 93,62 %
13.04.2019 10:40 5,9 C 14,4 C 13,3 C 76 % 1022,7 hPa 0,0 l/m 2 min 0 min 707 W/m 9,7 km/h (2 Bft) 95,74 %
13.04.2019 10:42 6,1 C 13,9 C 12,8 C 75 % 1022,7 hPa 0,0 l/m 2 min 0 min 612 W/m 12,9 km/h (3 Bft) 93,48 %
13.04.2019 10:44 6,3 C 12,8 C 11,7 C 74 % 1022,7 hPa 0,0 l/m 2 min 0 min 432 W/m 12,9 km/h (3 Bft) 93,62 %
13.04.2019 10:46 6,4 C 13,3 C 12,2 C 72 % 1022,7 hPa 0,0 l/m 2 min 0 min 593 W/m 16,1 km/h (3 Bft) 93,62 %
13.04.2019 10:48 6,5 C 13,3 C 12,8 C 72 % 1022,7 hPa 0,0 l/m 2 min 0 min 692 W/m 19,3 km/h (3 Bft) 93,62 %
13.04.2019 10:50 6,7 C 13,9 C 12,8 C 72 % 1022,7 hPa 0,0 l/m 2 min 0 min 657 W/m 9,7 km/h (2 Bft) 91,49 %
13.04.2019 10:52 6,7 C 14,4 C 13,3 C 71 % 1022,6 hPa 0,0 l/m 2 min 0 min 718 W/m 19,3 km/h (3 Bft) 93,62 %
13.04.2019 10:54 6,8 C 13,9 C 12,8 C 71 % 1022,6 hPa 0,0 l/m 2 min 0 min 769 W/m 19,3 km/h (3 Bft) 91,30 %
13.04.2019 10:56 6,9 C 13,9 C 13,3 C 70 % 1022,6 hPa 0,0 l/m 2 min 0 min 772 W/m 12,9 km/h (3 Bft) 93,62 %
13.04.2019 10:58 7,1 C 14,4 C 14,4 C 70 % 1022,5 hPa 0,0 l/m 2 min 0 min 746 W/m 16,1 km/h (3 Bft) 95,74 %
13.04.2019 11:00 7,2 C 12,8 C 12,2 C 70 % 1022,5 hPa 0,0 l/m 2 min 0 min 707 W/m 19,3 km/h (3 Bft) 95,74 %
13.04.2019 11:02 7,3 C 11,1 C 10,6 C 69 % 1022,5 hPa 0,0 l/m 2 min 0 min 705 W/m 16,1 km/h (3 Bft) 92,68 %
13.04.2019 11:04 7,3 C 12,2 C 11,7 C 69 % 1022,4 hPa 0,0 l/m 2 min 0 min 716 W/m 12,9 km/h (3 Bft) 95,74 %
13.04.2019 11:06 7,4 C 13,9 C 13,3 C 69 % 1022,4 hPa 0,0 l/m 2 min 0 min 754 W/m 16,1 km/h (3 Bft) 96,15 %
13.04.2019 11:08 7,4 C 15,0 C 14,4 C 69 % 1022,4 hPa 0,0 l/m 2 min 0 min 768 W/m 12,9 km/h (3 Bft) 95,74 %
13.04.2019 11:10 7,6 C 16,1 C 15,0 C 69 % 1022,4 hPa 0,0 l/m 2 min 0 min 746 W/m 12,9 km/h (3 Bft) 97,87 %
13.04.2019 11:12 7,7 C 15,6 C 15,0 C 68 % 1022,5 hPa 0,0 l/m 2 min 0 min 701 W/m 12,9 km/h (3 Bft) 97,56 %
13.04.2019 11:14 7,8 C 15,0 C 13,9 C 68 % 1022,5 hPa 0,0 l/m 2 min 0 min 722 W/m 16,1 km/h (3 Bft) 97,87 %
13.04.2019 11:16 7,9 C 15,0 C 14,4 C 67 % 1022,4 hPa 0,0 l/m 2 min 0 min 776 W/m 19,3 km/h (3 Bft) 95,74 %
13.04.2019 11:18 8,0 C 13,3 C 13,3 C 67 % 1022,5 hPa 0,0 l/m 2 min 0 min 806 W/m 16,1 km/h (3 Bft) 97,83 %
13.04.2019 11:20 8,0 C 13,3 C 13,3 C 66 % 1022,4 hPa 0,0 l/m 2 min 0 min 784 W/m 19,3 km/h (3 Bft) 97,87 %
13.04.2019 11:22 8,1 C 15,0 C 14,4 C 66 % 1022,4 hPa 0,0 l/m 2 min 0 min 810 W/m 9,7 km/h (2 Bft) 97,87 %
13.04.2019 11:24 8,1 C 15,0 C 13,9 C 66 % 1022,4 hPa 0,0 l/m 2 min 0 min 810 W/m 16,1 km/h (3 Bft) 95,74 %
13.04.2019 11:26 8,2 C 14,4 C 13,9 C 65 % 1022,4 hPa 0,0 l/m 2 min 0 min 781 W/m 12,9 km/h (3 Bft) 97,87 %
13.04.2019 11:28 8,2 C 12,2 C 11,7 C 65 % 1022,4 hPa 0,0 l/m 2 min 0 min 594 W/m 12,9 km/h (3 Bft) 97,87 %
13.04.2019 11:30 8,1 C 11,1 C 10,6 C 65 % 1022,5 hPa 0,0 l/m 0 min 0 min 294 W/m 12,9 km/h (3 Bft) 100,00 %
13.04.2019 11:32 8,0 C 10,6 C 10,0 C 65 % 1022,5 hPa 0,0 l/m 0 min 0 min 281 W/m 19,3 km/h (3 Bft) 97,87 %
13.04.2019 11:34 7,9 C 9,4 C 8,9 C 65 % 1022,5 hPa 0,0 l/m 0 min 0 min 292 W/m 12,9 km/h (3 Bft) 95,74 %
13.04.2019 11:36 7,9 C 10,0 C 8,9 C 65 % 1022,4 hPa 0,0 l/m 0 min 0 min 263 W/m 12,9 km/h (3 Bft) 98,11 %
13.04.2019 11:38 7,8 C 10,0 C 8,3 C 65 % 1022,5 hPa 0,0 l/m 2 min 0 min 329 W/m 9,7 km/h (2 Bft) 97,87 %
13.04.2019 11:40 7,8 C 11,7 C 8,9 C 66 % 1022,4 hPa 0,0 l/m 2 min 0 min 612 W/m 12,9 km/h (3 Bft) 97,67 %
13.04.2019 11:42 7,7 C 10,6 C 8,3 C 66 % 1022,4 hPa 0,0 l/m 2 min 0 min 329 W/m 9,7 km/h (2 Bft) 95,65 %
13.04.2019 11:44 7,7 C 8,3 C 7,2 C 65 % 1022,4 hPa 0,0 l/m 0 min 0 min 252 W/m 16,1 km/h (3 Bft) 97,87 %
13.04.2019 11:46 7,6 C 8,3 C 7,2 C 65 % 1022,4 hPa 0,0 l/m 0 min 0 min 300 W/m 12,9 km/h (3 Bft) 97,87 %
13.04.2019 11:48 7,4 C 7,8 C 7,2 C 65 % 1022,4 hPa 0,0 l/m 0 min 0 min 254 W/m 16,1 km/h (3 Bft) 97,96 %
13.04.2019 11:50 7,3 C 8,3 C 7,2 C 65 % 1022,4 hPa 0,0 l/m 0 min 0 min 264 W/m 16,1 km/h (3 Bft) 95,74 %
13.04.2019 11:52 7,2 C 10,6 C 8,3 C 67 % 1022,4 hPa 0,0 l/m 2 min 0 min 470 W/m 12,9 km/h (3 Bft) 97,83 %
13.04.2019 11:54 7,2 C 11,7 C 8,3 C 67 % 1022,4 hPa 0,0 l/m 2 min 0 min 826 W/m 22,5 km/h (4 Bft) 93,88 %
13.04.2019 11:56 7,2 C 12,2 C 8,3 C 66 % 1022,4 hPa 0,0 l/m 2 min 0 min 795 W/m 16,1 km/h (3 Bft) 95,74 %
13.04.2019 11:58 7,2 C 11,1 C 7,8 C 66 % 1022,1 hPa 0,0 l/m 2 min 0 min 610 W/m 12,9 km/h (3 Bft) 95,74 %
13.04.2019 12:00 7,2 C 12,8 C 8,3 C 67 % 1022,2 hPa 0,0 l/m 0 min 0 min 264 W/m 12,9 km/h (3 Bft) 95,74 %
13.04.2019 12:02 7,3 C 13,9 C 8,9 C 67 % 1022,2 hPa 0,0 l/m 2 min 0 min 841 W/m 16,1 km/h (3 Bft) 95,74 %
13.04.2019 12:04 7,3 C 11,7 C 8,3 C 67 % 1022,2 hPa 0,0 l/m 2 min 0 min 805 W/m 19,3 km/h (3 Bft) 95,65 %
13.04.2019 12:07 7,3 C 8,9 C 7,8 C 65 % 1022,2 hPa 0,0 l/m 0 min 0 min 288 W/m 22,5 km/h (4 Bft) 94,37 %
13.04.2019 12:08 7,3 C 8,3 C 7,8 C 65 % 1022,2 hPa 0,0 l/m 0 min 0 min 293 W/m 16,1 km/h (3 Bft) 100,00 %
13.04.2019 12:10 7,3 C 9,4 C 8,3 C 66 % 1022,2 hPa 0,0 l/m 0 min 0 min 310 W/m 12,9 km/h (3 Bft) 93,62 %
13.04.2019 12:12 7,3 C 10,6 C 8,9 C 66 % 1022,3 hPa 0,0 l/m 0 min 0 min 314 W/m 12,9 km/h (3 Bft) 97,87 %
13.04.2019 12:14 7,3 C 8,9 C 7,8 C 66 % 1022,2 hPa 0,0 l/m 0 min 0 min 292 W/m 16,1 km/h (3 Bft) 97,87 %
13.04.2019 12:16 7,2 C 7,8 C 7,2 C 66 % 1022,1 hPa 0,0 l/m 0 min 0 min 152 W/m 16,1 km/h (3 Bft) 95,65 %
13.04.2019 12:18 7,1 C 6,7 C 6,7 C 65 % 1022,1 hPa 0,0 l/m 0 min 0 min 124 W/m 12,9 km/h (3 Bft) 95,74 %
13.04.2019 12:20 7,0 C 6,1 C 6,1 C 65 % 1022,1 hPa 0,0 l/m 0 min 0 min 122 W/m 12,9 km/h (3 Bft) 97,87 %
13.04.2019 12:22 6,9 C 6,1 C 6,1 C 65 % 1022,1 hPa 0,0 l/m 0 min 0 min 116 W/m 12,9 km/h (3 Bft) 97,87 %
13.04.2019 12:24 6,7 C 5,6 C 5,6 C 66 % 1022,1 hPa 0,0 l/m 0 min 0 min 103 W/m 12,9 km/h (3 Bft) 97,87 %
13.04.2019 12:26 6,6 C 5,6 C 5,6 C 66 % 1022,1 hPa 0,0 l/m 0 min 0 min 111 W/m 12,9 km/h (3 Bft) 93,62 %
13.04.2019 12:28 6,5 C 5,6 C 5,6 C 66 % 1022,1 hPa 0,0 l/m 0 min 0 min 150 W/m 12,9 km/h (3 Bft) 95,65 %
13.04.2019 12:30 6,4 C 6,1 C 6,1 C 66 % 1022,1 hPa 0,0 l/m 0 min 0 min 200 W/m 9,7 km/h (2 Bft) 97,87 %
13.04.2019 12:32 6,3 C 6,1 C 6,1 C 67 % 1022,1 hPa 0,0 l/m 0 min 0 min 224 W/m 9,7 km/h (2 Bft) 95,74 %
13.04.2019 12:34 6,2 C 6,7 C 6,7 C 67 % 1022,1 hPa 0,0 l/m 0 min 0 min 227 W/m 19,3 km/h (3 Bft) 97,87 %
13.04.2019 12:36 6,1 C 6,1 C 6,1 C 67 % 1022,1 hPa 0,0 l/m 0 min 0 min 175 W/m 19,3 km/h (3 Bft) 95,74 %
13.04.2019 12:38 6,0 C 6,1 C 6,1 C 66 % 1022,1 hPa 0,0 l/m 0 min 0 min 174 W/m 12,9 km/h (3 Bft) 97,83 %
13.04.2019 12:40 6,0 C 8,3 C 6,7 C 67 % 1022,1 hPa 0,0 l/m 0 min 0 min 195 W/m 6,4 km/h (2 Bft) 97,87 %
13.04.2019 12:42 6,1 C 12,8 C 7,8 C 68 % 1022,0 hPa 0,0 l/m 2 min 0 min 850 W/m 16,1 km/h (3 Bft) 97,87 %
13.04.2019 12:44 6,2 C 12,2 C 8,3 C 69 % 1022,1 hPa 0,0 l/m 2 min 0 min 694 W/m 12,9 km/h (3 Bft) 93,62 %
13.04.2019 12:46 6,4 C 10,6 C 7,8 C 68 % 1022,0 hPa 0,0 l/m 0 min 0 min 243 W/m 9,7 km/h (2 Bft) 97,87 %
13.04.2019 12:48 6,4 C 8,9 C 7,8 C 67 % 1022,0 hPa 0,0 l/m 0 min 0 min 272 W/m 19,3 km/h (3 Bft) 100,00 %
13.04.2019 12:50 6,4 C 9,4 C 7,8 C 67 % 1022,0 hPa 0,0 l/m 0 min 0 min 328 W/m 16,1 km/h (3 Bft) 100,00 %
13.04.2019 12:52 6,5 C 8,3 C 7,2 C 66 % 1022,1 hPa 0,0 l/m 0 min 0 min 294 W/m 22,5 km/h (4 Bft) 100,00 %
13.04.2019 12:54 6,5 C 7,8 C 7,2 C 66 % 1022,0 hPa 0,0 l/m 0 min 0 min 210 W/m 19,3 km/h (3 Bft) 97,87 %
13.04.2019 12:56 6,5 C 7,2 C 6,7 C 66 % 1022,0 hPa 0,0 l/m 0 min 0 min 192 W/m 22,5 km/h (4 Bft) 97,87 %
13.04.2019 12:58 6,4 C 6,7 C 6,7 C 66 % 1022,0 hPa 0,0 l/m 0 min 0 min 166 W/m 16,1 km/h (3 Bft) 100,00 %
13.04.2019 13:00 6,4 C 6,1 C 6,1 C 66 % 1022,0 hPa 0,0 l/m 0 min 0 min 125 W/m 16,1 km/h (3 Bft) 100,00 %
13.04.2019 13:02 6,4 C 6,1 C 5,6 C 66 % 1022,0 hPa 0,0 l/m 0 min 0 min 125 W/m 16,1 km/h (3 Bft) 100,00 %
13.04.2019 13:04 6,3 C 6,7 C 5,6 C 66 % 1022,0 hPa 0,0 l/m 0 min 0 min 176 W/m 12,9 km/h (3 Bft) 97,87 %
13.04.2019 13:06 6,2 C 10,6 C 7,2 C 66 % 1022,0 hPa 0,0 l/m 2 min 0 min 605 W/m 12,9 km/h (3 Bft) 100,00 %
13.04.2019 13:08 6,3 C 12,8 C 8,3 C 68 % 1022,0 hPa 0,0 l/m 2 min 0 min 853 W/m 12,9 km/h (3 Bft) 100,00 %
13.04.2019 13:10 6,4 C 13,9 C 8,9 C 68 % 1021,9 hPa 0,0 l/m 2 min 0 min 886 W/m 12,9 km/h (3 Bft) 100,00 %
13.04.2019 13:12 6,7 C 14,4 C 10,0 C 68 % 1022,0 hPa 0,0 l/m 2 min 0 min 923 W/m 22,5 km/h (4 Bft) 100,00 %
13.04.2019 13:14 6,9 C 15,6 C 10,6 C 69 % 1021,9 hPa 0,0 l/m 2 min 0 min 943 W/m 12,9 km/h (3 Bft) 100,00 %
13.04.2019 13:16 7,1 C 15,0 C 10,6 C 67 % 1021,8 hPa 0,0 l/m 2 min 0 min 1006 W/m 19,3 km/h (3 Bft) 97,87 %
13.04.2019 13:18 7,3 C 15,0 C 11,7 C 68 % 1021,8 hPa 0,0 l/m 2 min 0 min 958 W/m 19,3 km/h (3 Bft) 100,00 %
13.04.2019 13:20 7,5 C 12,2 C 10,6 C 66 % 1021,9 hPa 0,0 l/m 2 min 0 min 480 W/m 16,1 km/h (3 Bft) 100,00 %
13.04.2019 13:22 7,6 C 11,1 C 10,6 C 65 % 1021,9 hPa 0,0 l/m 2 min 0 min 467 W/m 16,1 km/h (3 Bft) 100,00 %
13.04.2019 13:24 7,7 C 13,3 C 12,2 C 64 % 1021,8 hPa 0,0 l/m 2 min 0 min 503 W/m 12,9 km/h (3 Bft) 97,87 %
13.04.2019 13:26 7,8 C 13,3 C 12,8 C 63 % 1021,9 hPa 0,0 l/m 2 min 0 min 969 W/m 16,1 km/h (3 Bft) 100,00 %
13.04.2019 13:28 8,0 C 13,3 C 12,8 C 64 % 1021,9 hPa 0,0 l/m 2 min 0 min 586 W/m 12,9 km/h (3 Bft) 97,87 %
13.04.2019 13:30 8,2 C 12,8 C 12,8 C 64 % 1022,0 hPa 0,0 l/m 2 min 0 min 542 W/m 19,3 km/h (3 Bft) 91,49 %
13.04.2019 13:32 8,3 C 10,6 C 10,0 C 66 % 1022,0 hPa 0,0 l/m 0 min 2 min 326 W/m 25,7 km/h (4 Bft) 97,87 %
13.04.2019 13:34 8,2 C 8,3 C 8,3 C 66 % 1022,0 hPa 0,0 l/m 0 min 0 min 210 W/m 25,7 km/h (4 Bft) 97,87 %
13.04.2019 13:36 7,9 C 7,2 C 7,2 C 67 % 1022,0 hPa 0,0 l/m 0 min 2 min 220 W/m 29,0 km/h (5 Bft) 97,92 %
13.04.2019 13:38 7,7 C 6,1 C 6,7 C 68 % 1022,0 hPa 0,0 l/m 0 min 0 min 238 W/m 32,2 km/h (5 Bft) 95,65 %
13.04.2019 13:40 7,4 C 6,1 C 6,7 C 68 % 1022,0 hPa 0,0 l/m 0 min 0 min 224 W/m 19,3 km/h (3 Bft) 97,87 %
13.04.2019 13:42 7,3 C 6,1 C 6,1 C 69 % 1022,0 hPa 0,0 l/m 0 min 0 min 173 W/m 16,1 km/h (3 Bft) 97,87 %
13.04.2019 13:44 7,1 C 6,1 C 6,1 C 70 % 1021,9 hPa 0,0 l/m 0 min 0 min 171 W/m 16,1 km/h (3 Bft) 97,87 %
13.04.2019 13:46 6,8 C 6,1 C 6,1 C 70 % 1021,9 hPa 0,0 l/m 0 min 0 min 194 W/m 12,9 km/h (3 Bft) 95,74 %
13.04.2019 13:48 6,7 C 6,1 C 6,7 C 70 % 1021,9 hPa 0,0 l/m 0 min 0 min 224 W/m 25,7 km/h (4 Bft) 97,83 %
13.04.2019 13:50 6,6 C 6,7 C 6,7 C 69 % 1021,9 hPa 0,0 l/m 0 min 0 min 255 W/m 16,1 km/h (3 Bft) 97,87 %
13.04.2019 13:52 6,4 C 7,2 C 7,2 C 69 % 1021,9 hPa 0,0 l/m 0 min 0 min 301 W/m 9,7 km/h (2 Bft) 97,87 %
13.04.2019 13:54 6,4 C 7,8 C 7,8 C 69 % 1021,8 hPa 0,0 l/m 0 min 0 min 353 W/m 12,9 km/h (3 Bft) 97,87 %
13.04.2019 13:56 6,4 C 8,3 C 8,9 C 69 % 1021,9 hPa 0,0 l/m 2 min 0 min 386 W/m 16,1 km/h (3 Bft) 97,87 %
13.04.2019 13:58 6,4 C 8,9 C 9,4 C 69 % 1021,9 hPa 0,0 l/m 2 min 0 min 434 W/m 19,3 km/h (3 Bft) 97,87 %
13.04.2019 14:00 6,4 C 11,1 C 11,1 C 69 % 1021,8 hPa 0,0 l/m 2 min 0 min 464 W/m 12,9 km/h (3 Bft) 97,83 %
13.04.2019 14:02 6,5 C 12,8 C 12,8 C 70 % 1021,8 hPa 0,0 l/m 2 min 0 min 464 W/m 12,9 km/h (3 Bft) 97,87 %
13.04.2019 14:04 6,7 C 12,2 C 12,2 C 70 % 1021,8 hPa 0,0 l/m 2 min 0 min 503 W/m 25,7 km/h (4 Bft) 97,87 %
13.04.2019 14:06 6,8 C 12,2 C 11,7 C 69 % 1021,8 hPa 0,0 l/m 2 min 0 min 476 W/m 12,9 km/h (3 Bft) 97,87 %
13.04.2019 14:08 7,0 C 13,3 C 12,8 C 68 % 1021,8 hPa 0,0 l/m 2 min 0 min 475 W/m 16,1 km/h (3 Bft) 97,87 %
13.04.2019 14:10 7,2 C 12,8 C 12,2 C 67 % 1021,8 hPa 0,0 l/m 2 min 0 min 462 W/m 12,9 km/h (3 Bft) 95,74 %
13.04.2019 14:12 7,3 C 11,7 C 11,1 C 64 % 1021,7 hPa 0,0 l/m 2 min 0 min 373 W/m 16,1 km/h (3 Bft) 97,83 %
13.04.2019 14:14 7,4 C 10,6 C 10,6 C 63 % 1021,6 hPa 0,0 l/m 2 min 0 min 370 W/m 16,1 km/h (3 Bft) 97,87 %
13.04.2019 14:16 7,4 C 11,1 C 10,6 C 65 % 1021,6 hPa 0,0 l/m 2 min 0 min 430 W/m 16,1 km/h (3 Bft) 97,87 %
13.04.2019 14:18 7,5 C 11,1 C 10,0 C 64 % 1021,6 hPa 0,0 l/m 2 min 0 min 464 W/m 19,3 km/h (3 Bft) 95,74 %
13.04.2019 14:20 7,6 C 13,3 C 12,8 C 65 % 1021,6 hPa 0,0 l/m 2 min 0 min 538 W/m 12,9 km/h (3 Bft) 95,74 %
13.04.2019 14:22 7,7 C 14,4 C 13,9 C 66 % 1021,6 hPa 0,0 l/m 2 min 0 min 539 W/m 12,9 km/h (3 Bft) 97,87 %
13.04.2019 14:24 7,8 C 12,8 C 12,2 C 65 % 1021,5 hPa 0,0 l/m 2 min 0 min 484 W/m 19,3 km/h (3 Bft) 97,83 %
13.04.2019 14:26 7,9 C 11,7 C 11,1 C 63 % 1021,6 hPa 0,0 l/m 0 min 0 min 338 W/m 25,7 km/h (4 Bft) 95,74 %
13.04.2019 14:28 7,9 C 10,6 C 10,6 C 62 % 1021,6 hPa 0,0 l/m 0 min 0 min 321 W/m 12,9 km/h (3 Bft) 97,87 %
13.04.2019 14:30 7,9 C 10,6 C 10,6 C 62 % 1021,6 hPa 0,0 l/m 0 min 0 min 313 W/m 12,9 km/h (3 Bft) 95,74 %
13.04.2019 14:32 7,9 C 10,0 C 9,4 C 60 % 1021,6 hPa 0,0 l/m 0 min 0 min 309 W/m 9,7 km/h (2 Bft) 97,87 %
13.04.2019 14:34 7,9 C 10,0 C 9,4 C 59 % 1021,5 hPa 0,0 l/m 0 min 0 min 346 W/m 16,1 km/h (3 Bft) 97,87 %
13.04.2019 14:36 7,9 C 12,2 C 12,2 C 60 % 1021,5 hPa 0,0 l/m 2 min 0 min 481 W/m 19,3 km/h (3 Bft) 100,00 %
13.04.2019 14:38 7,9 C 13,3 C 13,3 C 61 % 1021,6 hPa 0,0 l/m 2 min 0 min 701 W/m 16,1 km/h (3 Bft) 100,00 %
13.04.2019 14:40 8,1 C 13,3 C 13,9 C 60 % 1021,6 hPa 0,0 l/m 2 min 0 min 770 W/m 22,5 km/h (4 Bft) 97,87 %
13.04.2019 14:42 8,2 C 14,4 C 14,4 C 59 % 1021,5 hPa 0,0 l/m 2 min 0 min 744 W/m 16,1 km/h (3 Bft) 100,00 %
13.04.2019 14:44 8,3 C 15,6 C 15,0 C 60 % 1021,5 hPa 0,0 l/m 2 min 0 min 774 W/m 19,3 km/h (3 Bft) 100,00 %
13.04.2019 14:46 8,5 C 16,7 C 16,1 C 60 % 1021,3 hPa 0,0 l/m 2 min 0 min 789 W/m 16,1 km/h (3 Bft) 97,56 %
13.04.2019 14:48 8,7 C 16,7 C 16,1 C 59 % 1021,3 hPa 0,0 l/m 2 min 0 min 802 W/m 22,5 km/h (4 Bft) 100,00 %
13.04.2019 14:50 8,9 C 16,7 C 15,0 C 59 % 1021,4 hPa 0,0 l/m 2 min 0 min 803 W/m 16,1 km/h (3 Bft) 95,74 %
13.04.2019 14:52 9,2 C 16,7 C 12,8 C 60 % 1021,3 hPa 0,0 l/m 2 min 0 min 795 W/m 16,1 km/h (3 Bft) 97,87 %
13.04.2019 14:54 9,3 C 16,7 C 11,7 C 58 % 1021,3 hPa 0,0 l/m 2 min 0 min 800 W/m 12,9 km/h (3 Bft) 95,74 %
13.04.2019 14:56 9,4 C 16,1 C 11,7 C 57 % 1021,3 hPa 0,0 l/m 2 min 0 min 809 W/m 12,9 km/h (3 Bft) 95,74 %
13.04.2019 14:58 9,6 C 16,7 C 11,1 C 58 % 1021,3 hPa 0,0 l/m 2 min 0 min 794 W/m 29,0 km/h (5 Bft) 97,87 %
13.04.2019 15:00 9,7 C 16,7 C 11,1 C 56 % 1021,3 hPa 0,0 l/m 2 min 0 min 789 W/m 19,3 km/h (3 Bft) 95,65 %
13.04.2019 15:02 9,8 C 16,7 C 11,1 C 56 % 1021,3 hPa 0,0 l/m 2 min 0 min 805 W/m 22,5 km/h (4 Bft) 98,11 %
13.04.2019 15:04 9,9 C 15,6 C 10,6 C 55 % 1021,2 hPa 0,0 l/m 2 min 0 min 795 W/m 19,3 km/h (3 Bft) 93,62 %
13.04.2019 15:06 10,0 C 16,7 C 10,6 C 54 % 1021,2 hPa 0,0 l/m 2 min 0 min 803 W/m 12,9 km/h (3 Bft) 95,74 %
13.04.2019 15:08 10,1 C 16,7 C 10,6 C 52 % 1021,3 hPa 0,0 l/m 2 min 0 min 803 W/m 22,5 km/h (4 Bft) 95,74 %
13.04.2019 15:10 10,1 C 16,7 C 11,1 C 51 % 1021,1 hPa 0,0 l/m 2 min 0 min 788 W/m 25,7 km/h (4 Bft) 97,83 %
13.04.2019 15:12 10,2 C 16,7 C 11,1 C 51 % 1021,2 hPa 0,0 l/m 2 min 0 min 776 W/m 25,7 km/h (4 Bft) 97,87 %
13.04.2019 15:14 10,3 C 16,1 C 10,6 C 50 % 1021,2 hPa 0,0 l/m 2 min 0 min 783 W/m 12,9 km/h (3 Bft) 95,74 %
13.04.2019 15:16 10,3 C 16,7 C 11,1 C 51 % 1021,2 hPa 0,0 l/m 2 min 0 min 801 W/m 19,3 km/h (3 Bft) 95,12 %
13.04.2019 15:18 10,4 C 17,2 C 11,1 C 52 % 1021,1 hPa 0,0 l/m 2 min 0 min 818 W/m 16,1 km/h (3 Bft) 95,74 %
13.04.2019 15:20 10,5 C 17,2 C 11,7 C 52 % 1021,1 hPa 0,0 l/m 2 min 0 min 842 W/m 16,1 km/h (3 Bft) 95,74 %
13.04.2019 15:22 10,6 C 16,7 C 11,7 C 51 % 1021,1 hPa 0,0 l/m 2 min 0 min 881 W/m 25,7 km/h (4 Bft) 91,49 %
13.04.2019 15:24 10,6 C 16,7 C 11,1 C 51 % 1021,1 hPa 0,0 l/m 2 min 0 min 836 W/m 9,7 km/h (2 Bft) 95,65 %
13.04.2019 15:26 10,6 C 14,4 C 10,6 C 51 % 1021,1 hPa 0,0 l/m 2 min 0 min 485 W/m 16,1 km/h (3 Bft) 95,74 %
13.04.2019 15:28 10,6 C 12,8 C 10,6 C 51 % 1021,0 hPa 0,0 l/m 0 min 0 min 238 W/m 9,7 km/h (2 Bft) 95,74 %
13.04.2019 15:30 10,5 C 11,7 C 10,0 C 49 % 1021,1 hPa 0,0 l/m 0 min 0 min 220 W/m 12,9 km/h (3 Bft) 97,87 %
13.04.2019 15:32 10,4 C 10,0 C 9,4 C 49 % 1021,0 hPa 0,0 l/m 0 min 0 min 216 W/m 19,3 km/h (3 Bft) 93,62 %
13.04.2019 15:34 10,2 C 9,4 C 9,4 C 51 % 1021,0 hPa 0,0 l/m 0 min 0 min 213 W/m 25,7 km/h (4 Bft) 97,87 %
13.04.2019 15:36 9,9 C 9,4 C 9,4 C 52 % 1021,1 hPa 0,0 l/m 0 min 0 min 206 W/m 25,7 km/h (4 Bft) 97,83 %
13.04.2019 15:38 9,7 C 8,9 C 8,9 C 53 % 1021,1 hPa 0,0 l/m 0 min 0 min 207 W/m 25,7 km/h (4 Bft) 95,74 %
13.04.2019 15:40 9,4 C 8,9 C 8,9 C 54 % 1021,0 hPa 0,0 l/m 0 min 0 min 228 W/m 19,3 km/h (3 Bft) 97,87 %
13.04.2019 15:42 9,3 C 8,9 C 8,9 C 55 % 1021,1 hPa 0,0 l/m 0 min 0 min 278 W/m 25,7 km/h (4 Bft) 95,74 %
13.04.2019 15:44 9,1 C 8,9 C 8,9 C 57 % 1021,2 hPa 0,0 l/m 0 min 0 min 302 W/m 22,5 km/h (4 Bft) 97,87 %
13.04.2019 15:46 8,9 C 8,9 C 8,9 C 59 % 1021,2 hPa 0,0 l/m 0 min 0 min 294 W/m 19,3 km/h (3 Bft) 97,83 %
13.04.2019 15:48 8,7 C 8,3 C 8,9 C 58 % 1021,2 hPa 0,0 l/m 0 min 0 min 245 W/m 29,0 km/h (5 Bft) 95,74 %
13.04.2019 15:50 8,6 C 8,3 C 8,3 C 59 % 1021,3 hPa 0,0 l/m 0 min 0 min 247 W/m 19,3 km/h (3 Bft) 97,87 %
13.04.2019 15:52 8,3 C 7,8 C 7,8 C 60 % 1021,3 hPa 0,0 l/m 0 min 0 min 266 W/m 25,7 km/h (4 Bft) 97,87 %
13.04.2019 15:54 8,2 C 8,9 C 8,3 C 61 % 1021,4 hPa 0,0 l/m 2 min 0 min 331 W/m 16,1 km/h (3 Bft) 95,74 %
13.04.2019 15:56 8,1 C 10,6 C 8,9 C 63 % 1021,4 hPa 0,0 l/m 2 min 0 min 534 W/m 22,5 km/h (4 Bft) 97,87 %
13.04.2019 15:58 8,0 C 11,1 C 8,9 C 64 % 1021,4 hPa 0,0 l/m 2 min 0 min 669 W/m 25,7 km/h (4 Bft) 95,65 %
13.04.2019 16:00 8,0 C 12,2 C 8,9 C 65 % 1021,4 hPa 0,0 l/m 2 min 0 min 725 W/m 16,1 km/h (3 Bft) 97,87 %
13.04.2019 16:02 8,1 C 12,8 C 9,4 C 65 % 1021,4 hPa 0,0 l/m 2 min 0 min 724 W/m 19,3 km/h (3 Bft) 93,62 %
13.04.2019 16:04 8,1 C 12,2 C 9,4 C 66 % 1021,3 hPa 0,0 l/m 2 min 0 min 728 W/m 25,7 km/h (4 Bft) 91,49 %
13.04.2019 16:06 8,1 C 12,8 C 10,0 C 66 % 1021,4 hPa 0,0 l/m 2 min 0 min 716 W/m 12,9 km/h (3 Bft) 92,45 %
13.04.2019 16:08 8,1 C 12,2 C 11,7 C 66 % 1021,3 hPa 0,0 l/m 2 min 0 min 712 W/m 25,7 km/h (4 Bft) 95,65 %
13.04.2019 16:10 8,2 C 12,8 C 12,2 C 66 % 1021,3 hPa 0,0 l/m 2 min 0 min 711 W/m 25,7 km/h (4 Bft) 97,87 %
13.04.2019 16:12 8,3 C 12,8 C 13,3 C 66 % 1021,3 hPa 0,0 l/m 2 min 0 min 713 W/m 22,5 km/h (4 Bft) 93,62 %
13.04.2019 16:14 8,3 C 13,3 C 12,8 C 65 % 1021,2 hPa 0,0 l/m 2 min 0 min 711 W/m 19,3 km/h (3 Bft) 97,87 %
13.04.2019 16:16 8,4 C 12,8 C 12,2 C 61 % 1021,3 hPa 0,0 l/m 2 min 0 min 699 W/m 19,3 km/h (3 Bft) 97,56 %
13.04.2019 16:18 8,4 C 11,7 C 11,1 C 60 % 1021,2 hPa 0,0 l/m 2 min 0 min 637 W/m 12,9 km/h (3 Bft) 97,87 %
13.04.2019 16:20 8,4 C 11,7 C 10,6 C 60 % 1021,2 hPa 0,0 l/m 2 min 0 min 616 W/m 19,3 km/h (3 Bft) 97,87 %
13.04.2019 16:22 8,4 C 11,1 C 10,6 C 58 % 1021,1 hPa 0,0 l/m 2 min 0 min 625 W/m 29,0 km/h (5 Bft) 95,65 %
13.04.2019 16:24 8,4 C 11,7 C 11,1 C 59 % 1021,1 hPa 0,0 l/m 2 min 0 min 631 W/m 25,7 km/h (4 Bft) 97,87 %
13.04.2019 16:26 8,4 C 11,7 C 11,1 C 60 % 1021,2 hPa 0,0 l/m 2 min 0 min 603 W/m 32,2 km/h (5 Bft) 97,87 %
13.04.2019 16:28 8,5 C 11,1 C 10,6 C 60 % 1021,2 hPa 0,0 l/m 2 min 0 min 414 W/m 9,7 km/h (2 Bft) 95,74 %
13.04.2019 16:30 8,4 C 9,4 C 9,4 C 58 % 1021,3 hPa 0,0 l/m 2 min 0 min 303 W/m 22,5 km/h (4 Bft) 97,87 %
13.04.2019 16:32 8,3 C 9,4 C 8,9 C 57 % 1021,1 hPa 0,0 l/m 0 min 0 min 269 W/m 12,9 km/h (3 Bft) 97,87 %
13.04.2019 16:34 8,3 C 8,9 C 8,9 C 59 % 1021,1 hPa 0,0 l/m 0 min 0 min 265 W/m 19,3 km/h (3 Bft) 97,83 %
13.04.2019 16:36 8,2 C 8,9 C 8,9 C 59 % 1021,1 hPa 0,0 l/m 2 min 0 min 283 W/m 12,9 km/h (3 Bft) 98,11 %
13.04.2019 16:38 8,2 C 8,3 C 8,9 C 57 % 1021,0 hPa 0,0 l/m 2 min 0 min 356 W/m 12,9 km/h (3 Bft) 97,87 %
13.04.2019 16:40 8,1 C 8,9 C 8,9 C 58 % 1021,0 hPa 0,0 l/m 2 min 0 min 437 W/m 9,7 km/h (2 Bft) 97,87 %
13.04.2019 16:42 8,1 C 10,0 C 8,9 C 59 % 1021,0 hPa 0,0 l/m 2 min 0 min 438 W/m 12,9 km/h (3 Bft) 97,87 %
13.04.2019 16:44 8,1 C 10,6 C 9,4 C 60 % 1021,0 hPa 0,0 l/m 2 min 0 min 486 W/m 9,7 km/h (2 Bft) 97,83 %
13.04.2019 16:46 8,0 C 10,6 C 9,4 C 61 % 1020,9 hPa 0,0 l/m 2 min 0 min 484 W/m 19,3 km/h (3 Bft) 97,56 %
13.04.2019 16:48 8,1 C 11,7 C 9,4 C 61 % 1020,9 hPa 0,0 l/m 2 min 0 min 514 W/m 12,9 km/h (3 Bft) 97,87 %
13.04.2019 16:50 8,2 C 12,2 C 10,0 C 62 % 1020,9 hPa 0,0 l/m 2 min 0 min 539 W/m 16,1 km/h (3 Bft) 97,87 %
13.04.2019 16:52 8,3 C 12,8 C 10,0 C 62 % 1020,9 hPa 0,0 l/m 2 min 0 min 552 W/m 12,9 km/h (3 Bft) 97,87 %
13.04.2019 16:54 8,4 C 12,8 C 10,6 C 60 % 1020,9 hPa 0,0 l/m 2 min 0 min 574 W/m 16,1 km/h (3 Bft) 97,87 %
13.04.2019 16:56 8,5 C 13,3 C 12,2 C 60 % 1020,8 hPa 0,0 l/m 2 min 0 min 580 W/m 12,9 km/h (3 Bft) 95,74 %
13.04.2019 16:58 8,7 C 12,8 C 13,3 C 60 % 1020,8 hPa 0,0 l/m 2 min 0 min 582 W/m 12,9 km/h (3 Bft) 97,83 %
13.04.2019 17:00 8,8 C 12,8 C 13,3 C 59 % 1020,8 hPa 0,0 l/m 2 min 0 min 583 W/m 16,1 km/h (3 Bft) 97,87 %
13.04.2019 17:02 8,9 C 13,3 C 14,4 C 59 % 1020,9 hPa 0,0 l/m 2 min 0 min 592 W/m 16,1 km/h (3 Bft) 95,74 %
13.04.2019 17:04 9,1 C 13,3 C 15,0 C 58 % 1020,8 hPa 0,0 l/m 2 min 0 min 592 W/m 12,9 km/h (3 Bft) 97,87 %
13.04.2019 17:06 9,2 C 13,3 C 13,3 C 56 % 1020,7 hPa 0,0 l/m 2 min 0 min 580 W/m 19,3 km/h (3 Bft) 97,87 %
13.04.2019 17:08 9,2 C 13,3 C 12,2 C 55 % 1020,7 hPa 0,0 l/m 2 min 0 min 560 W/m 19,3 km/h (3 Bft) 98,08 %
13.04.2019 17:10 9,3 C 13,3 C 11,1 C 56 % 1020,8 hPa 0,0 l/m 2 min 0 min 543 W/m 29,0 km/h (5 Bft) 100,00 %
13.04.2019 17:12 9,4 C 13,3 C 10,6 C 56 % 1020,8 hPa 0,0 l/m 2 min 0 min 535 W/m 16,1 km/h (3 Bft) 97,56 %
13.04.2019 17:14 9,4 C 12,8 C 10,0 C 55 % 1020,8 hPa 0,0 l/m 2 min 0 min 517 W/m 9,7 km/h (2 Bft) 100,00 %
13.04.2019 17:16 9,5 C 12,8 C 10,0 C 55 % 1020,8 hPa 0,0 l/m 2 min 0 min 475 W/m 16,1 km/h (3 Bft) 97,87 %
13.04.2019 17:18 9,6 C 12,8 C 10,0 C 56 % 1020,7 hPa 0,0 l/m 2 min 0 min 454 W/m 12,9 km/h (3 Bft) 100,00 %
13.04.2019 17:20 9,6 C 12,8 C 10,0 C 55 % 1020,8 hPa 0,0 l/m 2 min 0 min 460 W/m 12,9 km/h (3 Bft) 95,65 %
13.04.2019 17:22 9,7 C 12,2 C 9,4 C 55 % 1020,7 hPa 0,0 l/m 2 min 0 min 458 W/m 25,7 km/h (4 Bft) 97,87 %
13.04.2019 17:24 9,7 C 12,2 C 9,4 C 55 % 1020,8 hPa 0,0 l/m 2 min 0 min 463 W/m 22,5 km/h (4 Bft) 95,74 %
13.04.2019 17:26 9,7 C 11,1 C 9,4 C 54 % 1020,8 hPa 0,0 l/m 2 min 0 min 456 W/m 29,0 km/h (5 Bft) 93,62 %
13.04.2019 17:28 9,6 C 11,1 C 8,9 C 54 % 1020,7 hPa 0,0 l/m 2 min 0 min 451 W/m 19,3 km/h (3 Bft) 97,87 %
13.04.2019 17:30 9,6 C 11,1 C 8,9 C 55 % 1020,7 hPa 0,0 l/m 2 min 0 min 445 W/m 12,9 km/h (3 Bft) 97,87 %
13.04.2019 17:32 9,5 C 11,1 C 8,9 C 54 % 1020,8 hPa 0,0 l/m 2 min 0 min 434 W/m 19,3 km/h (3 Bft) 97,83 %
13.04.2019 17:34 9,4 C 11,1 C 8,9 C 54 % 1020,7 hPa 0,0 l/m 2 min 0 min 429 W/m 29,0 km/h (5 Bft) 97,87 %
13.04.2019 17:36 9,4 C 11,1 C 8,3 C 54 % 1020,7 hPa 0,0 l/m 2 min 0 min 425 W/m 16,1 km/h (3 Bft) 98,11 %
13.04.2019 17:38 9,4 C 11,1 C 8,3 C 54 % 1020,6 hPa 0,0 l/m 2 min 0 min 429 W/m 16,1 km/h (3 Bft) 97,87 %
13.04.2019 17:40 9,4 C 11,7 C 8,9 C 55 % 1020,6 hPa 0,0 l/m 2 min 0 min 440 W/m 9,7 km/h (2 Bft) 95,74 %
13.04.2019 17:42 9,4 C 11,7 C 8,9 C 56 % 1020,7 hPa 0,0 l/m 2 min 0 min 452 W/m 32,2 km/h (5 Bft) 97,83 %
13.04.2019 17:44 9,4 C 11,1 C 8,9 C 56 % 1020,7 hPa 0,0 l/m 2 min 0 min 466 W/m 16,1 km/h (3 Bft) 97,87 %
13.04.2019 17:46 9,3 C 10,6 C 8,9 C 56 % 1020,7 hPa 0,0 l/m 2 min 0 min 481 W/m 38,6 km/h (5 Bft) 95,12 %
13.04.2019 17:48 9,3 C 10,6 C 8,9 C 56 % 1020,7 hPa 0,0 l/m 2 min 0 min 477 W/m 22,5 km/h (4 Bft) 95,74 %
13.04.2019 17:50 9,2 C 10,6 C 8,9 C 56 % 1020,7 hPa 0,0 l/m 2 min 0 min 460 W/m 12,9 km/h (3 Bft) 95,74 %
13.04.2019 17:52 9,2 C 11,1 C 8,9 C 57 % 1020,7 hPa 0,0 l/m 2 min 0 min 446 W/m 22,5 km/h (4 Bft) 96,23 %
13.04.2019 17:54 9,2 C 10,6 C 8,9 C 58 % 1020,7 hPa 0,0 l/m 2 min 0 min 374 W/m 16,1 km/h (3 Bft) 97,83 %
13.04.2019 17:56 9,1 C 9,4 C 8,3 C 57 % 1020,7 hPa 0,0 l/m 2 min 0 min 252 W/m 19,3 km/h (3 Bft) 95,74 %
13.04.2019 17:58 9,1 C 8,9 C 8,3 C 57 % 1020,7 hPa 0,0 l/m 0 min 0 min 173 W/m 16,1 km/h (3 Bft) 97,87 %
13.04.2019 18:00 8,9 C 8,3 C 8,3 C 57 % 1020,7 hPa 0,0 l/m 2 min 0 min 188 W/m 12,9 km/h (3 Bft) 97,87 %
13.04.2019 18:02 8,9 C 8,9 C 8,3 C 57 % 1020,7 hPa 0,0 l/m 2 min 0 min 284 W/m 16,1 km/h (3 Bft) 97,56 %
13.04.2019 18:04 8,8 C 8,9 C 7,8 C 57 % 1020,7 hPa 0,0 l/m 2 min 0 min 290 W/m 16,1 km/h (3 Bft) 100,00 %
13.04.2019 18:07 8,7 C 8,9 C 7,8 C 57 % 1020,7 hPa 0,0 l/m 3 min 0 min 343 W/m 16,1 km/h (3 Bft) 100,00 %
13.04.2019 18:08 8,6 C 8,9 C 7,8 C 56 % 1020,7 hPa 0,0 l/m 1 min 0 min 341 W/m 9,7 km/h (2 Bft) 100,00 %
13.04.2019 18:10 8,6 C 8,9 C 7,8 C 57 % 1020,6 hPa 0,0 l/m 2 min 0 min 345 W/m 9,7 km/h (2 Bft) 97,87 %
13.04.2019 18:12 8,4 C 8,3 C 7,2 C 57 % 1020,6 hPa 0,0 l/m 2 min 0 min 248 W/m 32,2 km/h (5 Bft) 100,00 %
13.04.2019 18:14 8,3 C 7,8 C 7,2 C 56 % 1020,6 hPa 0,0 l/m 2 min 0 min 225 W/m 22,5 km/h (4 Bft) 97,87 %
13.04.2019 18:16 8,2 C 7,8 C 6,7 C 56 % 1020,6 hPa 0,0 l/m 2 min 0 min 222 W/m 19,3 km/h (3 Bft) 100,00 %
13.04.2019 18:18 8,1 C 7,2 C 6,7 C 57 % 1020,6 hPa 0,0 l/m 2 min 0 min 223 W/m 29,0 km/h (5 Bft) 97,83 %
13.04.2019 18:20 7,9 C 7,2 C 6,7 C 57 % 1020,6 hPa 0,0 l/m 2 min 0 min 248 W/m 12,9 km/h (3 Bft) 100,00 %
13.04.2019 18:22 7,9 C 7,2 C 6,7 C 57 % 1020,6 hPa 0,0 l/m 2 min 0 min 254 W/m 22,5 km/h (4 Bft) 100,00 %
13.04.2019 18:24 7,8 C 7,2 C 6,7 C 57 % 1020,6 hPa 0,0 l/m 2 min 0 min 180 W/m 16,1 km/h (3 Bft) 100,00 %
13.04.2019 18:26 7,7 C 6,7 C 6,1 C 57 % 1020,5 hPa 0,0 l/m 2 min 0 min 151 W/m 12,9 km/h (3 Bft) 100,00 %
13.04.2019 18:28 7,5 C 6,7 C 6,1 C 57 % 1020,7 hPa 0,0 l/m 0 min 0 min 125 W/m 12,9 km/h (3 Bft) 97,87 %
13.04.2019 18:30 7,4 C 6,1 C 6,1 C 57 % 1020,6 hPa 0,0 l/m 0 min 0 min 89 W/m 16,1 km/h (3 Bft) 100,00 %
13.04.2019 18:32 7,3 C 6,1 C 6,1 C 57 % 1020,7 hPa 0,0 l/m 0 min 0 min 88 W/m 19,3 km/h (3 Bft) 100,00 %
13.04.2019 18:34 7,2 C 6,1 C 6,1 C 57 % 1020,6 hPa 0,0 l/m 0 min 0 min 96 W/m 12,9 km/h (3 Bft) 97,87 %
13.04.2019 18:36 7,2 C 6,7 C 6,1 C 58 % 1020,6 hPa 0,0 l/m 0 min 0 min 104 W/m 16,1 km/h (3 Bft) 100,00 %
13.04.2019 18:38 7,1 C 6,7 C 6,1 C 59 % 1020,6 hPa 0,0 l/m 0 min 0 min 113 W/m 25,7 km/h (4 Bft) 97,87 %
13.04.2019 18:40 7,1 C 6,7 C 6,1 C 58 % 1020,6 hPa 0,0 l/m 0 min 0 min 126 W/m 22,5 km/h (4 Bft) 97,83 %
13.04.2019 18:42 6,9 C 6,7 C 6,7 C 59 % 1020,7 hPa 0,0 l/m 2 min 0 min 141 W/m 9,7 km/h (2 Bft) 100,00 %
13.04.2019 18:44 6,9 C 7,2 C 6,7 C 59 % 1020,7 hPa 0,0 l/m 2 min 0 min 160 W/m 16,1 km/h (3 Bft) 100,00 %
13.04.2019 18:46 6,9 C 7,2 C 6,7 C 59 % 1020,6 hPa 0,0 l/m 2 min 0 min 181 W/m 19,3 km/h (3 Bft) 100,00 %
13.04.2019 18:48 6,9 C 6,7 C 6,7 C 65 % 1020,8 hPa 0,0 l/m 2 min 0 min 217 W/m 16,1 km/h (3 Bft) 93,62 %
13.04.2019 18:50 6,9 C 6,7 C 6,7 C 66 % 1020,8 hPa 0,0 l/m 2 min 0 min 231 W/m 12,9 km/h (3 Bft) 97,87 %
13.04.2019 18:52 6,9 C 6,7 C 6,7 C 68 % 1020,8 hPa 0,0 l/m 2 min 0 min 195 W/m 16,1 km/h (3 Bft) 97,87 %
13.04.2019 18:54 6,8 C 6,1 C 6,1 C 68 % 1020,8 hPa 0,0 l/m 2 min 0 min 145 W/m 16,1 km/h (3 Bft) 97,83 %
13.04.2019 18:56 6,7 C 5,6 C 5,6 C 69 % 1020,9 hPa 0,0 l/m 0 min 0 min 111 W/m 9,7 km/h (2 Bft) 96,23 %
13.04.2019 18:58 6,6 C 5,6 C 5,6 C 70 % 1020,8 hPa 0,0 l/m 0 min 0 min 94 W/m 12,9 km/h (3 Bft) 93,62 %
13.04.2019 19:00 6,5 C 5,6 C 5,6 C 70 % 1020,9 hPa 0,0 l/m 0 min 0 min 78 W/m 9,7 km/h (2 Bft) 95,74 %
13.04.2019 19:02 6,4 C 5,0 C 5,0 C 70 % 1020,8 hPa 0,0 l/m 0 min 0 min 66 W/m 9,7 km/h (2 Bft) 97,56 %
13.04.2019 19:04 6,3 C 5,0 C 5,0 C 70 % 1020,8 hPa 0,0 l/m 0 min 0 min 56 W/m 9,7 km/h (2 Bft) 95,74 %
13.04.2019 19:06 6,2 C 5,0 C 5,0 C 69 % 1020,8 hPa 0,0 l/m 0 min 0 min 53 W/m 16,1 km/h (3 Bft) 96,15 %
13.04.2019 19:08 6,1 C 5,0 C 5,0 C 69 % 1020,8 hPa 0,0 l/m 0 min 0 min 50 W/m 12,9 km/h (3 Bft) 95,74 %
13.04.2019 19:10 6,0 C 5,0 C 5,0 C 70 % 1020,7 hPa 0,0 l/m 0 min 0 min 44 W/m 9,7 km/h (2 Bft) 97,87 %
13.04.2019 19:12 5,9 C 4,4 C 5,0 C 70 % 1020,7 hPa 0,0 l/m 0 min 0 min 37 W/m 9,7 km/h (2 Bft) 95,74 %
13.04.2019 19:14 5,9 C 4,4 C 5,0 C 70 % 1020,8 hPa 0,0 l/m 0 min 0 min 31 W/m 6,4 km/h (2 Bft) 97,87 %
13.04.2019 19:16 5,8 C 4,4 C 4,4 C 70 % 1020,8 hPa 0,0 l/m 0 min 0 min 26 W/m 9,7 km/h (2 Bft) 95,12 %
13.04.2019 19:18 5,7 C 4,4 C 4,4 C 70 % 1020,8 hPa 0,0 l/m 0 min 0 min 23 W/m 9,7 km/h (2 Bft) 95,65 %
13.04.2019 19:20 5,7 C 4,4 C 4,4 C 71 % 1020,8 hPa 0,0 l/m 0 min 0 min 20 W/m 12,9 km/h (3 Bft) 93,62 %
13.04.2019 19:22 5,6 C 4,4 C 4,4 C 71 % 1020,8 hPa 0,0 l/m 0 min 0 min 19 W/m 9,7 km/h (2 Bft) 95,74 %
13.04.2019 19:24 5,6 C 4,4 C 4,4 C 71 % 1020,9 hPa 0,0 l/m 0 min 0 min 19 W/m 12,9 km/h (3 Bft) 97,87 %
13.04.2019 19:26 5,4 C 4,4 C 4,4 C 71 % 1020,9 hPa 0,0 l/m 0 min 0 min 19 W/m 16,1 km/h (3 Bft) 97,87 %
13.04.2019 19:28 5,4 C 4,4 C 4,4 C 72 % 1020,9 hPa 0,0 l/m 0 min 0 min 19 W/m 16,1 km/h (3 Bft) 97,87 %
13.04.2019 19:30 5,3 C 3,9 C 3,9 C 72 % 1021,0 hPa 0,0 l/m 0 min 0 min 19 W/m 22,5 km/h (4 Bft) 97,83 %
13.04.2019 19:32 5,3 C 3,9 C 3,9 C 73 % 1020,9 hPa 0,0 l/m 0 min 0 min 19 W/m 22,5 km/h (4 Bft) 97,87 %
13.04.2019 19:34 5,2 C 3,3 C 3,9 C 74 % 1020,9 hPa 0,0 l/m 0 min 0 min 20 W/m 22,5 km/h (4 Bft) 97,87 %
13.04.2019 19:36 5,1 C 3,3 C 3,9 C 75 % 1020,9 hPa 0,0 l/m 0 min 0 min 19 W/m 16,1 km/h (3 Bft) 92,45 %
13.04.2019 19:38 5,0 C 3,3 C 3,3 C 75 % 1020,9 hPa 0,0 l/m 0 min 0 min 19 W/m 9,7 km/h (2 Bft) 97,87 %
13.04.2019 19:40 4,9 C 3,3 C 3,3 C 75 % 1020,9 hPa 0,0 l/m 0 min 0 min 19 W/m 16,1 km/h (3 Bft) 97,83 %
13.04.2019 19:42 4,8 C 2,8 C 3,3 C 75 % 1020,9 hPa 0,0 l/m 0 min 0 min 19 W/m 16,1 km/h (3 Bft) 96,00 %
13.04.2019 19:44 4,7 C 2,8 C 3,3 C 76 % 1020,9 hPa 0,0 l/m 0 min 0 min 18 W/m 12,9 km/h (3 Bft) 95,74 %
13.04.2019 19:46 4,6 C 2,8 C 2,8 C 76 % 1020,9 hPa 0,0 l/m 0 min 0 min 18 W/m 12,9 km/h (3 Bft) 97,87 %
13.04.2019 19:48 4,6 C 2,8 C 2,8 C 76 % 1020,9 hPa 0,0 l/m 0 min 0 min 18 W/m 19,3 km/h (3 Bft) 97,87 %
13.04.2019 19:50 4,4 C 2,8 C 2,8 C 76 % 1020,9 hPa 0,0 l/m 0 min 0 min 18 W/m 12,9 km/h (3 Bft) 97,83 %
13.04.2019 19:52 4,4 C 2,8 C 2,8 C 77 % 1020,9 hPa 0,0 l/m 0 min 0 min 16 W/m 9,7 km/h (2 Bft) 97,87 %
13.04.2019 19:56 4,3 C 2,2 C 2,8 C 77 % 1020,9 hPa 0,0 l/m 0 min 0 min 16 W/m 9,7 km/h (2 Bft) 97,87 %
13.04.2019 19:58 4,2 C 2,2 C 2,8 C 78 % 1020,9 hPa 0,0 l/m 0 min 0 min 15 W/m 9,7 km/h (2 Bft) 97,87 %
13.04.2019 20:00 4,1 C 2,2 C 2,2 C 78 % 1020,9 hPa 0,0 l/m 0 min 0 min 14 W/m 9,7 km/h (2 Bft) 97,87 %
13.04.2019 20:02 4,1 C 2,2 C 2,8 C 78 % 1021,0 hPa 0,0 l/m 0 min 0 min 14 W/m 9,7 km/h (2 Bft) 95,65 %
13.04.2019 20:04 4,0 C 2,2 C 2,2 C 79 % 1021,0 hPa 0,0 l/m 0 min 0 min 13 W/m 9,7 km/h (2 Bft) 97,87 %
13.04.2019 20:06 3,9 C 2,2 C 2,2 C 79 % 1020,9 hPa 0,0 l/m 0 min 0 min 12 W/m 6,4 km/h (2 Bft) 97,87 %
13.04.2019 20:08 3,9 C 2,2 C 2,2 C 79 % 1021,0 hPa 0,0 l/m 0 min 0 min 12 W/m 9,7 km/h (2 Bft) 97,87 %
13.04.2019 20:10 3,8 C 2,2 C 2,2 C 80 % 1021,0 hPa 0,0 l/m 0 min 0 min 11 W/m 9,7 km/h (2 Bft) 95,74 %
13.04.2019 20:12 3,8 C 2,2 C 2,2 C 80 % 1021,0 hPa 0,0 l/m 0 min 0 min 11 W/m 9,7 km/h (2 Bft) 97,87 %
13.04.2019 20:14 3,7 C 1,7 C 2,2 C 80 % 1021,0 hPa 0,0 l/m 0 min 0 min 10 W/m 6,4 km/h (2 Bft) 97,83 %
13.04.2019 20:16 3,7 C 1,7 C 2,2 C 80 % 1021,0 hPa 0,0 l/m 0 min 0 min 9 W/m 6,4 km/h (2 Bft) 93,62 %
13.04.2019 20:18 3,6 C 1,7 C 2,2 C 80 % 1021,0 hPa 0,0 l/m 0 min 0 min 7 W/m 6,4 km/h (2 Bft) 97,87 %
13.04.2019 20:20 3,6 C 1,7 C 1,7 C 81 % 1021,0 hPa 0,0 l/m 0 min 0 min 7 W/m 0,0 km/h (0 Bft) 97,87 %
13.04.2019 20:22 3,6 C 1,7 C 1,7 C 81 % 1021,0 hPa 0,0 l/m 0 min 0 min 5 W/m 6,4 km/h (2 Bft) 97,87 %
13.04.2019 20:24 3,4 C 1,7 C 1,7 C 81 % 1021,0 hPa 0,0 l/m 0 min 0 min 5 W/m 0,0 km/h (0 Bft) 95,65 %
13.04.2019 20:26 3,4 C 1,7 C 1,7 C 81 % 1021,0 hPa 0,0 l/m 0 min 0 min 4 W/m 0,0 km/h (0 Bft) 91,49 %
13.04.2019 20:28 3,4 C 1,7 C 1,7 C 81 % 1021,1 hPa 0,0 l/m 0 min 0 min 0 W/m 6,4 km/h (2 Bft) 95,74 %
13.04.2019 20:30 3,3 C 1,7 C 1,7 C 82 % 1021,0 hPa 0,0 l/m 0 min 0 min 0 W/m 6,4 km/h (2 Bft) 95,74 %
13.04.2019 20:32 3,3 C 1,7 C 1,7 C 82 % 1021,1 hPa 0,0 l/m 0 min 0 min 0 W/m 9,7 km/h (2 Bft) 93,62 %
13.04.2019 20:34 3,2 C 1,7 C 1,7 C 82 % 1021,1 hPa 0,0 l/m 0 min 0 min 0 W/m 3,2 km/h (1 Bft) 97,87 %
13.04.2019 20:36 3,2 C 1,1 C 1,7 C 82 % 1021,1 hPa 0,0 l/m 0 min 0 min 0 W/m 0,0 km/h (0 Bft) 95,65 %
13.04.2019 20:38 3,2 C 1,1 C 1,7 C 82 % 1021,1 hPa 0,0 l/m 0 min 0 min 0 W/m 0,0 km/h (0 Bft) 95,74 %
13.04.2019 20:40 3,1 C 1,1 C 1,7 C 82 % 1021,1 hPa 0,0 l/m 0 min 0 min 0 W/m 3,2 km/h (1 Bft) 93,62 %
13.04.2019 20:42 3,1 C 1,1 C 1,7 C 82 % 1021,1 hPa 0,0 l/m 0 min 0 min 0 W/m 6,4 km/h (2 Bft) 93,62 %
13.04.2019 20:44 3,1 C 1,1 C 1,1 C 82 % 1021,2 hPa 0,0 l/m 0 min 0 min 0 W/m 6,4 km/h (2 Bft) 93,62 %
13.04.2019 20:46 3,0 C 1,1 C 1,1 C 83 % 1021,2 hPa 0,0 l/m 0 min 0 min 0 W/m 3,2 km/h (1 Bft) 97,87 %
13.04.2019 20:48 2,9 C 1,1 C 1,1 C 83 % 1021,2 hPa 0,0 l/m 0 min 0 min 0 W/m 3,2 km/h (1 Bft) 93,48 %
13.04.2019 20:50 2,9 C 1,1 C 1,1 C 83 % 1021,2 hPa 0,0 l/m 0 min 0 min 0 W/m 3,2 km/h (1 Bft) 91,49 %
13.04.2019 20:52 2,9 C 1,1 C 1,1 C 83 % 1021,2 hPa 0,0 l/m 0 min 0 min 0 W/m 6,4 km/h (2 Bft) 93,62 %
13.04.2019 20:54 2,8 C 1,1 C 1,1 C 83 % 1021,2 hPa 0,0 l/m 0 min 0 min 0 W/m 6,4 km/h (2 Bft) 93,62 %
13.04.2019 20:56 2,8 C 1,1 C 1,1 C 83 % 1021,2 hPa 0,0 l/m 0 min 0 min 0 W/m 6,4 km/h (2 Bft) 93,62 %
13.04.2019 20:58 2,7 C 1,1 C 1,1 C 84 % 1021,3 hPa 0,0 l/m 0 min 0 min 0 W/m 0,0 km/h (0 Bft) 93,62 %
13.04.2019 21:00 2,7 C 1,1 C 1,1 C 84 % 1021,3 hPa 0,0 l/m 0 min 0 min 0 W/m 3,2 km/h (1 Bft) 93,48 %
13.04.2019 21:02 2,7 C 1,1 C 1,1 C 84 % 1021,3 hPa 0,0 l/m 0 min 0 min 0 W/m 6,4 km/h (2 Bft) 91,49 %
13.04.2019 21:04 2,7 C 1,1 C 1,1 C 84 % 1021,3 hPa 0,0 l/m 0 min 0 min 0 W/m 0,0 km/h (0 Bft) 91,49 %
13.04.2019 21:06 2,6 C 1,1 C 1,1 C 84 % 1021,4 hPa 0,0 l/m 0 min 0 min 0 W/m 0,0 km/h (0 Bft) 93,62 %
13.04.2019 21:08 2,6 C 0,6 C 0,6 C 84 % 1021,4 hPa 0,0 l/m 0 min 0 min 0 W/m 0,0 km/h (0 Bft) 93,62 %
13.04.2019 21:10 2,6 C 0,6 C 0,6 C 84 % 1021,4 hPa 0,0 l/m 0 min 0 min 0 W/m 0,0 km/h (0 Bft) 95,74 %
13.04.2019 21:12 2,5 C 0,6 C 0,6 C 84 % 1021,4 hPa 0,0 l/m 0 min 0 min 0 W/m 0,0 km/h (0 Bft) 93,48 %
13.04.2019 21:14 2,5 C 0,6 C 0,6 C 84 % 1021,4 hPa 0,0 l/m 0 min 0 min 0 W/m 0,0 km/h (0 Bft) 93,62 %
13.04.2019 21:16 2,4 C 0,6 C 0,6 C 84 % 1021,5 hPa 0,0 l/m 0 min 0 min 0 W/m 0,0 km/h (0 Bft) 95,74 %
13.04.2019 21:18 2,4 C 0,6 C 0,6 C 84 % 1021,4 hPa 0,0 l/m 0 min 0 min 0 W/m 0,0 km/h (0 Bft) 100,00 %
13.04.2019 21:20 2,4 C 0,6 C 0,6 C 84 % 1021,5 hPa 0,0 l/m 0 min 0 min 0 W/m 0,0 km/h (0 Bft) 97,87 %
13.04.2019 21:22 2,3 C 0,6 C 0,6 C 84 % 1021,5 hPa 0,0 l/m 0 min 0 min 0 W/m 0,0 km/h (0 Bft) 95,65 %
13.04.2019 21:24 2,3 C 0,6 C 0,6 C 84 % 1021,4 hPa 0,0 l/m 0 min 0 min 0 W/m 0,0 km/h (0 Bft) 93,62 %
13.04.2019 21:26 2,3 C 0,6 C 0,6 C 84 % 1021,4 hPa 0,0 l/m 0 min 0 min 0 W/m 0,0 km/h (0 Bft) 95,74 %
13.04.2019 21:28 2,3 C 0,6 C 0,6 C 84 % 1021,5 hPa 0,0 l/m 0 min 0 min 0 W/m 0,0 km/h (0 Bft) 93,62 %
13.04.2019 21:30 2,2 C 0,6 C 0,6 C 84 % 1021,5 hPa 0,0 l/m 0 min 0 min 0 W/m 0,0 km/h (0 Bft) 87,23 %
13.04.2019 21:32 2,2 C 0,6 C 0,6 C 84 % 1021,5 hPa 0,0 l/m 0 min 0 min 0 W/m 0,0 km/h (0 Bft) 97,87 %
13.04.2019 21:34 2,2 C 0,6 C 0,6 C 84 % 1021,5 hPa 0,0 l/m 0 min 0 min 0 W/m 0,0 km/h (0 Bft) 95,65 %
13.04.2019 21:36 2,2 C 0,6 C 0,6 C 84 % 1021,6 hPa 0,0 l/m 0 min 0 min 0 W/m 0,0 km/h (0 Bft) 97,87 %
13.04.2019 21:38 2,1 C 0,6 C 0,6 C 84 % 1021,5 hPa 0,0 l/m 0 min 0 min 0 W/m 0,0 km/h (0 Bft) 93,62 %
13.04.2019 21:40 2,1 C 1,1 C 0,6 C 84 % 1021,6 hPa 0,0 l/m 0 min 0 min 0 W/m 0,0 km/h (0 Bft) 97,87 %
13.04.2019 21:42 2,1 C 1,1 C 1,1 C 84 % 1021,6 hPa 0,0 l/m 0 min 0 min 0 W/m 0,0 km/h (0 Bft) 91,49 %
13.04.2019 21:44 2,1 C 1,1 C 1,1 C 84 % 1021,5 hPa 0,0 l/m 0 min 0 min 0 W/m 0,0 km/h (0 Bft) 97,87 %
13.04.2019 21:46 2,1 C 1,1 C 1,1 C 84 % 1021,6 hPa 0,0 l/m 0 min 0 min 0 W/m 0,0 km/h (0 Bft) 93,48 %
13.04.2019 21:48 2,0 C 1,1 C 1,1 C 85 % 1021,6 hPa 0,0 l/m 0 min 0 min 0 W/m 0,0 km/h (0 Bft) 95,74 %
13.04.2019 21:50 2,0 C 1,1 C 1,1 C 85 % 1021,6 hPa 0,0 l/m 0 min 0 min 0 W/m 0,0 km/h (0 Bft) 97,87 %
13.04.2019 21:52 2,0 C 1,1 C 1,1 C 85 % 1021,5 hPa 0,0 l/m 0 min 0 min 0 W/m 0,0 km/h (0 Bft) 97,87 %
13.04.2019 21:54 2,0 C 1,1 C 1,1 C 85 % 1021,5 hPa 0,0 l/m 0 min 0 min 0 W/m 0,0 km/h (0 Bft) 97,87 %
13.04.2019 21:56 1,9 C 1,7 C 1,1 C 85 % 1021,5 hPa 0,0 l/m 0 min 0 min 0 W/m 0,0 km/h (0 Bft) 95,74 %
13.04.2019 21:58 1,9 C 1,7 C 1,1 C 85 % 1021,6 hPa 0,0 l/m 0 min 0 min 0 W/m 0,0 km/h (0 Bft) 95,65 %
13.04.2019 22:00 1,9 C 1,7 C 1,7 C 85 % 1021,5 hPa 0,0 l/m 0 min 0 min 0 W/m 0,0 km/h (0 Bft) 97,87 %
13.04.2019 22:02 2,0 C 1,7 C 1,7 C 85 % 1021,5 hPa 0,0 l/m 0 min 0 min 0 W/m 0,0 km/h (0 Bft) 97,87 %
13.04.2019 22:04 1,9 C 1,7 C 1,7 C 85 % 1021,5 hPa 0,0 l/m 0 min 0 min 0 W/m 0,0 km/h (0 Bft) 95,74 %
13.04.2019 22:06 2,0 C 2,2 C 1,7 C 86 % 1021,5 hPa 0,0 l/m 0 min 0 min 0 W/m 0,0 km/h (0 Bft) 97,87 %
13.04.2019 22:08 2,0 C 2,2 C 1,7 C 86 % 1021,5 hPa 0,0 l/m 0 min 0 min 0 W/m 6,4 km/h (2 Bft) 97,87 %
13.04.2019 22:10 2,0 C 2,2 C 1,7 C 86 % 1021,4 hPa 0,0 l/m 0 min 0 min 0 W/m 0,0 km/h (0 Bft) 97,83 %
13.04.2019 22:12 2,1 C 2,2 C 1,7 C 86 % 1021,5 hPa 0,0 l/m 0 min 0 min 0 W/m 3,2 km/h (1 Bft) 95,74 %
13.04.2019 22:14 2,1 C 2,2 C 1,7 C 86 % 1021,5 hPa 0,0 l/m 0 min 0 min 0 W/m 6,4 km/h (2 Bft) 97,87 %
13.04.2019 22:16 2,1 C 2,2 C 2,2 C 86 % 1021,5 hPa 0,0 l/m 0 min 0 min 0 W/m 6,4 km/h (2 Bft) 97,87 %
13.04.2019 22:18 2,1 C 2,2 C 2,2 C 87 % 1021,5 hPa 0,0 l/m 0 min 0 min 0 W/m 0,0 km/h (0 Bft) 95,74 %
13.04.2019 22:20 2,2 C 2,2 C 2,2 C 87 % 1021,5 hPa 0,0 l/m 0 min 0 min 0 W/m 0,0 km/h (0 Bft) 95,74 %
13.04.2019 22:22 2,2 C 2,2 C 2,2 C 87 % 1021,5 hPa 0,0 l/m 0 min 0 min 0 W/m 3,2 km/h (1 Bft) 97,83 %
13.04.2019 22:24 2,2 C 2,2 C 2,2 C 87 % 1021,5 hPa 0,0 l/m 0 min 0 min 0 W/m 0,0 km/h (0 Bft) 95,74 %
13.04.2019 22:26 2,2 C 2,2 C 2,2 C 87 % 1021,5 hPa 0,0 l/m 0 min 0 min 0 W/m 0,0 km/h (0 Bft) 97,87 %
13.04.2019 22:28 2,2 C 2,2 C 2,2 C 87 % 1021,5 hPa 0,0 l/m 0 min 0 min 0 W/m 3,2 km/h (1 Bft) 97,87 %
13.04.2019 22:30 2,3 C 2,2 C 2,2 C 87 % 1021,5 hPa 0,0 l/m 0 min 0 min 0 W/m 0,0 km/h (0 Bft) 97,87 %
13.04.2019 22:32 2,3 C 2,2 C 2,2 C 87 % 1021,5 hPa 0,0 l/m 0 min 0 min 0 W/m 3,2 km/h (1 Bft) 97,83 %
13.04.2019 22:34 2,3 C 2,2 C 2,2 C 87 % 1021,4 hPa 0,0 l/m 0 min 0 min 0 W/m 3,2 km/h (1 Bft) 97,87 %
13.04.2019 22:36 2,4 C 2,8 C 2,2 C 87 % 1021,4 hPa 0,0 l/m 0 min 0 min 0 W/m 6,4 km/h (2 Bft) 97,87 %
13.04.2019 22:38 2,4 C 2,8 C 2,2 C 87 % 1021,4 hPa 0,0 l/m 0 min 0 min 0 W/m 6,4 km/h (2 Bft) 97,87 %
13.04.2019 22:40 2,4 C 2,8 C 2,2 C 87 % 1021,4 hPa 0,0 l/m 0 min 0 min 0 W/m 3,2 km/h (1 Bft) 97,87 %
13.04.2019 22:42 2,5 C 2,8 C 2,2 C 87 % 1021,4 hPa 0,0 l/m 0 min 2 min 0 W/m 6,4 km/h (2 Bft) 97,87 %
13.04.2019 22:44 2,6 C 2,8 C 2,2 C 88 % 1021,4 hPa 0,0 l/m 0 min 0 min 0 W/m 6,4 km/h (2 Bft) 100,00 %
13.04.2019 22:46 2,7 C 2,8 C 2,8 C 88 % 1021,4 hPa 0,0 l/m 0 min 0 min 0 W/m 12,9 km/h (3 Bft) 100,00 %
13.04.2019 22:48 2,7 C 2,8 C 2,8 C 88 % 1021,4 hPa 0,0 l/m 0 min 0 min 0 W/m 9,7 km/h (2 Bft) 100,00 %
13.04.2019 22:50 2,7 C 2,8 C 2,8 C 88 % 1021,4 hPa 0,0 l/m 0 min 0 min 0 W/m 9,7 km/h (2 Bft) 100,00 %
13.04.2019 22:52 2,8 C 2,8 C 2,8 C 88 % 1021,4 hPa 0,0 l/m 0 min 2 min 0 W/m 6,4 km/h (2 Bft) 100,00 %
13.04.2019 22:54 2,8 C 2,8 C 2,2 C 88 % 1021,4 hPa 0,0 l/m 0 min 0 min 0 W/m 3,2 km/h (1 Bft) 100,00 %
13.04.2019 22:56 2,8 C 2,8 C 2,2 C 88 % 1021,4 hPa 0,0 l/m 0 min 0 min 0 W/m 3,2 km/h (1 Bft) 95,65 %
13.04.2019 22:58 2,9 C 2,8 C 2,2 C 88 % 1021,4 hPa 0,0 l/m 0 min 0 min 0 W/m 6,4 km/h (2 Bft) 95,74 %
13.04.2019 23:00 2,9 C 2,8 C 2,2 C 88 % 1021,4 hPa 0,0 l/m 0 min 0 min 0 W/m 3,2 km/h (1 Bft) 100,00 %
13.04.2019 23:02 2,9 C 2,8 C 2,8 C 88 % 1021,4 hPa 0,0 l/m 0 min 0 min 0 W/m 9,7 km/h (2 Bft) 100,00 %
13.04.2019 23:04 3,0 C 2,8 C 2,2 C 88 % 1021,4 hPa 0,0 l/m 0 min 0 min 0 W/m 9,7 km/h (2 Bft) 100,00 %
13.04.2019 23:06 3,0 C 2,8 C 2,2 C 88 % 1021,4 hPa 0,0 l/m 0 min 0 min 0 W/m 9,7 km/h (2 Bft) 100,00 %
13.04.2019 23:08 3,1 C 2,8 C 2,2 C 88 % 1021,3 hPa 0,0 l/m 0 min 0 min 0 W/m 9,7 km/h (2 Bft) 100,00 %
13.04.2019 23:10 3,1 C 2,8 C 2,2 C 88 % 1021,3 hPa 0,0 l/m 0 min 0 min 0 W/m 9,7 km/h (2 Bft) 100,00 %
13.04.2019 23:12 3,1 C 2,8 C 2,2 C 88 % 1021,3 hPa 0,0 l/m 0 min 0 min 0 W/m 6,4 km/h (2 Bft) 100,00 %
13.04.2019 23:14 3,1 C 2,2 C 2,2 C 88 % 1021,2 hPa 0,0 l/m 0 min 0 min 0 W/m 9,7 km/h (2 Bft) 100,00 %
13.04.2019 23:16 3,1 C 2,2 C 2,2 C 88 % 1021,2 hPa 0,0 l/m 0 min 0 min 0 W/m 12,9 km/h (3 Bft) 100,00 %
13.04.2019 23:18 3,1 C 2,2 C 2,2 C 88 % 1021,2 hPa 0,0 l/m 0 min 0 min 0 W/m 12,9 km/h (3 Bft) 97,87 %
13.04.2019 23:20 3,1 C 2,2 C 2,2 C 88 % 1021,2 hPa 0,0 l/m 0 min 0 min 0 W/m 9,7 km/h (2 Bft) 100,00 %
13.04.2019 23:22 3,0 C 2,2 C 1,7 C 88 % 1021,2 hPa 0,0 l/m 0 min 0 min 0 W/m 6,4 km/h (2 Bft) 100,00 %
13.04.2019 23:24 3,0 C 2,2 C 1,7 C 87 % 1021,1 hPa 0,0 l/m 0 min 0 min 0 W/m 6,4 km/h (2 Bft) 97,87 %
13.04.2019 23:26 3,0 C 2,2 C 1,7 C 87 % 1021,2 hPa 0,0 l/m 0 min 0 min 0 W/m 6,4 km/h (2 Bft) 100,00 %
13.04.2019 23:28 3,0 C 2,2 C 1,7 C 87 % 1021,2 hPa 0,0 l/m 0 min 0 min 0 W/m 3,2 km/h (1 Bft) 100,00 %
13.04.2019 23:30 2,9 C 1,7 C 1,7 C 87 % 1021,2 hPa 0,0 l/m 0 min 0 min 0 W/m 3,2 km/h (1 Bft) 100,00 %
13.04.2019 23:32 2,9 C 1,7 C 1,7 C 87 % 1021,2 hPa 0,0 l/m 0 min 0 min 0 W/m 3,2 km/h (1 Bft) 100,00 %
13.04.2019 23:34 2,9 C 1,7 C 1,7 C 87 % 1021,2 hPa 0,0 l/m 0 min 0 min 0 W/m 3,2 km/h (1 Bft) 100,00 %
13.04.2019 23:36 2,9 C 2,2 C 1,7 C 87 % 1021,2 hPa 0,0 l/m 0 min 0 min 0 W/m 6,4 km/h (2 Bft) 100,00 %
13.04.2019 23:38 2,9 C 1,7 C 1,7 C 87 % 1021,2 hPa 0,0 l/m 0 min 0 min 0 W/m 0,0 km/h (0 Bft) 100,00 %
13.04.2019 23:40 2,9 C 1,7 C 1,7 C 87 % 1021,1 hPa 0,0 l/m 0 min 0 min 0 W/m 6,4 km/h (2 Bft) 100,00 %
13.04.2019 23:42 2,9 C 1,7 C 1,7 C 87 % 1021,1 hPa 0,0 l/m 0 min 0 min 0 W/m 3,2 km/h (1 Bft) 100,00 %
13.04.2019 23:44 2,9 C 1,7 C 1,7 C 87 % 1021,2 hPa 0,0 l/m 0 min 0 min 0 W/m 0,0 km/h (0 Bft) 100,00 %
13.04.2019 23:46 2,8 C 1,7 C 1,7 C 87 % 1021,2 hPa 0,0 l/m 0 min 0 min 0 W/m 3,2 km/h (1 Bft) 100,00 %
13.04.2019 23:48 2,8 C 1,7 C 1,7 C 87 % 1021,1 hPa 0,0 l/m 0 min 0 min 0 W/m 0,0 km/h (0 Bft) 100,00 %
13.04.2019 23:50 2,8 C 1,7 C 1,7 C 87 % 1021,2 hPa 0,0 l/m 0 min 0 min 0 W/m 0,0 km/h (0 Bft) 97,87 %
13.04.2019 23:52 2,8 C 1,7 C 1,7 C 87 % 1021,1 hPa 0,0 l/m 0 min 0 min 0 W/m 0,0 km/h (0 Bft) 97,87 %
13.04.2019 23:54 2,8 C 1,7 C 1,7 C 87 % 1021,2 hPa 0,0 l/m 0 min 0 min 0 W/m 0,0 km/h (0 Bft) 95,65 %
13.04.2019 23:56 2,7 C 1,7 C 1,7 C 87 % 1021,2 hPa 0,0 l/m 0 min 0 min 0 W/m 3,2 km/h (1 Bft) 97,87 %
13.04.2019 23:58 2,7 C 1,7 C 1,7 C 88 % 1021,2 hPa 0,0 l/m 0 min 0 min 0 W/m 3,2 km/h (1 Bft) 97,87 %
_ Min-Zeit 07:20 06:44 06:44 15:30 18:26 - - - - 02:38 00:02
Minimum _ -0,3 C -1,7 C -2,2 C 49 % 1020,5 hPa - - - - 0,0 km/h (0 Bft) 22,22 %
_ Max-Zeit 15:22 15:18 14:46 08:20 00:00 00:00 18:07 13:32 13:16 17:46 00:10
Maximum _ 10,6 C 17,2 C 16,1 C 91 % 1023,2 hPa 0,0 l/m 3 min 2 min 1006 W/m 38,6 km/h
NW (5 Bft)
100,00 %
Durchschnitt _ 4,3 C 5,1 C 4,3 C 76 % 1022,0 hPa #0,0 l/m #5:56 h #8 min. 310 W/m 9,9 km/h (2 Bft) 96,90 %
© 2019 W. Hausmann